<?xml version="1.0" encoding="UTF-8" standalone="no" ?>
<gpx xmlns="http://www.topografix.com/GPX/1/1" xmlns:xsi="http://www.w3.org/2001/XMLSchema-instance" xsi:schemaLocation="http://www.topografix.com/GPX/1/1 http://www.topografix.com/GPX/1/1/gpx.xsd" version="1.1" creator="VisuGPX - https://www.visugpx.com">
  <metadata>
    <name>Hotonnes - Vallée du Valmorey</name>
    <desc><![CDATA[fait le 08/05/2023 ]]></desc>
  </metadata>
  <trk>
    <name><![CDATA[2023-05-08 14:37:24]]></name>
    <extensions>
      <line xmlns="http://www.topografix.com/GPX/gpx_style/0/2">
        <color>0000FF</color>
        <width>4</width>
      </line>
    </extensions>
    <trkseg>
      <trkpt lat="45.9973" lon="5.68035">
        <ele>695.17</ele>
        <time>2023-05-08T08:02:12Z</time>
        <extensions>
          <visugpx:TrkExtension xmlns:visugpx="https://www.visugpx.com/editgpx/">
            <visugpx:node>1</visugpx:node>
            </visugpx:TrkExtension>
        </extensions>
      </trkpt>
      <trkpt lat="45.99729" lon="5.68034">
        <ele>693.25</ele>
        <time>2023-05-08T08:02:34Z</time>
      </trkpt>
      <trkpt lat="45.99726" lon="5.68037">
        <ele>691.33</ele>
        <time>2023-05-08T08:02:48Z</time>
      </trkpt>
      <trkpt lat="45.99723" lon="5.6804">
        <ele>690.36</ele>
        <time>2023-05-08T08:03:04Z</time>
      </trkpt>
      <trkpt lat="45.99724" lon="5.6804">
        <ele>686.52</ele>
        <time>2023-05-08T08:03:18Z</time>
      </trkpt>
      <trkpt lat="45.99728" lon="5.68049">
        <ele>675.94</ele>
        <time>2023-05-08T08:03:38Z</time>
      </trkpt>
      <trkpt lat="45.99728" lon="5.68053">
        <ele>673.06</ele>
        <time>2023-05-08T08:03:56Z</time>
      </trkpt>
      <trkpt lat="45.99731" lon="5.68051">
        <ele>672.58</ele>
        <time>2023-05-08T08:04:17Z</time>
      </trkpt>
      <trkpt lat="45.99741" lon="5.68049">
        <ele>677.87</ele>
        <time>2023-05-08T08:04:44Z</time>
      </trkpt>
      <trkpt lat="45.99733" lon="5.68048">
        <ele>678.35</ele>
        <time>2023-05-08T08:05:08Z</time>
      </trkpt>
      <trkpt lat="45.99725" lon="5.68048">
        <ele>677.39</ele>
        <time>2023-05-08T08:05:33Z</time>
      </trkpt>
      <trkpt lat="45.99728" lon="5.6805">
        <ele>678.35</ele>
        <time>2023-05-08T08:05:58Z</time>
      </trkpt>
      <trkpt lat="45.99727" lon="5.6805">
        <ele>679.79</ele>
        <time>2023-05-08T08:06:13Z</time>
      </trkpt>
      <trkpt lat="45.9973" lon="5.6805">
        <ele>678.83</ele>
        <time>2023-05-08T08:06:33Z</time>
      </trkpt>
      <trkpt lat="45.99729" lon="5.68051">
        <ele>681.23</ele>
        <time>2023-05-08T08:06:50Z</time>
      </trkpt>
      <trkpt lat="45.9973" lon="5.68051">
        <ele>682.67</ele>
        <time>2023-05-08T08:07:08Z</time>
      </trkpt>
      <trkpt lat="45.99733" lon="5.68052">
        <ele>682.67</ele>
        <time>2023-05-08T08:07:30Z</time>
      </trkpt>
      <trkpt lat="45.99731" lon="5.68054">
        <ele>682.67</ele>
        <time>2023-05-08T08:07:44Z</time>
      </trkpt>
      <trkpt lat="45.99724" lon="5.68057">
        <ele>682.19</ele>
        <time>2023-05-08T08:08:03Z</time>
      </trkpt>
      <trkpt lat="45.99728" lon="5.68053">
        <ele>681.71</ele>
        <time>2023-05-08T08:08:21Z</time>
      </trkpt>
      <trkpt lat="45.99731" lon="5.68055">
        <ele>681.23</ele>
        <time>2023-05-08T08:08:41Z</time>
      </trkpt>
      <trkpt lat="45.99733" lon="5.68054">
        <ele>681.23</ele>
        <time>2023-05-08T08:08:54Z</time>
      </trkpt>
      <trkpt lat="45.9973" lon="5.68052">
        <ele>680.75</ele>
        <time>2023-05-08T08:09:08Z</time>
      </trkpt>
      <trkpt lat="45.99732" lon="5.6805">
        <ele>683.15</ele>
        <time>2023-05-08T08:09:27Z</time>
      </trkpt>
      <trkpt lat="45.99742" lon="5.68042">
        <ele>685.08</ele>
        <time>2023-05-08T08:09:42Z</time>
      </trkpt>
      <trkpt lat="45.99757" lon="5.68031">
        <ele>683.15</ele>
        <time>2023-05-08T08:09:58Z</time>
      </trkpt>
      <trkpt lat="45.99759" lon="5.6803">
        <ele>683.15</ele>
        <time>2023-05-08T08:09:59Z</time>
      </trkpt>
      <trkpt lat="45.99761" lon="5.68022">
        <ele>681.23</ele>
        <time>2023-05-08T08:10:14Z</time>
      </trkpt>
      <trkpt lat="45.99763" lon="5.6802">
        <ele>678.83</ele>
        <time>2023-05-08T08:10:37Z</time>
      </trkpt>
      <trkpt lat="45.9976" lon="5.68022">
        <ele>679.31</ele>
        <time>2023-05-08T08:10:49Z</time>
      </trkpt>
      <trkpt lat="45.99756" lon="5.68027">
        <ele>678.83</ele>
        <time>2023-05-08T08:10:55Z</time>
      </trkpt>
      <trkpt lat="45.99751" lon="5.6804">
        <ele>678.35</ele>
        <time>2023-05-08T08:11:10Z</time>
      </trkpt>
      <trkpt lat="45.99742" lon="5.68051">
        <ele>678.83</ele>
        <time>2023-05-08T08:11:24Z</time>
      </trkpt>
      <trkpt lat="45.99735" lon="5.68053">
        <ele>678.35</ele>
        <time>2023-05-08T08:11:33Z</time>
      </trkpt>
      <trkpt lat="45.9973" lon="5.68054">
        <ele>678.35</ele>
        <time>2023-05-08T08:11:37Z</time>
      </trkpt>
      <trkpt lat="45.99722" lon="5.68053">
        <ele>678.83</ele>
        <time>2023-05-08T08:11:52Z</time>
      </trkpt>
      <trkpt lat="45.99719" lon="5.68054">
        <ele>679.31</ele>
        <time>2023-05-08T08:12:10Z</time>
      </trkpt>
      <trkpt lat="45.99718" lon="5.6805">
        <ele>680.75</ele>
        <time>2023-05-08T08:12:30Z</time>
      </trkpt>
      <trkpt lat="45.99718" lon="5.68045">
        <ele>680.75</ele>
        <time>2023-05-08T08:12:48Z</time>
      </trkpt>
      <trkpt lat="45.99717" lon="5.68034">
        <ele>682.67</ele>
        <time>2023-05-08T08:13:12Z</time>
      </trkpt>
      <trkpt lat="45.9972" lon="5.68035">
        <ele>682.19</ele>
        <time>2023-05-08T08:13:16Z</time>
      </trkpt>
      <trkpt lat="45.99724" lon="5.68042">
        <ele>681.71</ele>
        <time>2023-05-08T08:13:20Z</time>
      </trkpt>
      <trkpt lat="45.99748" lon="5.68037">
        <ele>682.19</ele>
        <time>2023-05-08T08:13:39Z</time>
      </trkpt>
      <trkpt lat="45.99751" lon="5.68047">
        <ele>681.23</ele>
        <time>2023-05-08T08:13:57Z</time>
      </trkpt>
      <trkpt lat="45.99751" lon="5.68054">
        <ele>682.19</ele>
        <time>2023-05-08T08:14:15Z</time>
      </trkpt>
      <trkpt lat="45.99751" lon="5.68054">
        <ele>680.75</ele>
        <time>2023-05-08T08:14:34Z</time>
      </trkpt>
      <trkpt lat="45.9975" lon="5.68053">
        <ele>680.75</ele>
        <time>2023-05-08T08:15:08Z</time>
      </trkpt>
      <trkpt lat="45.99746" lon="5.68054">
        <ele>680.75</ele>
        <time>2023-05-08T08:15:25Z</time>
      </trkpt>
      <trkpt lat="45.99742" lon="5.68051">
        <ele>681.23</ele>
        <time>2023-05-08T08:15:30Z</time>
      </trkpt>
      <trkpt lat="45.99727" lon="5.68054">
        <ele>684.6</ele>
        <time>2023-05-08T08:15:43Z</time>
      </trkpt>
      <trkpt lat="45.99704" lon="5.6804">
        <ele>681.23</ele>
        <time>2023-05-08T08:15:56Z</time>
      </trkpt>
      <trkpt lat="45.99688" lon="5.68028">
        <ele>678.83</ele>
        <time>2023-05-08T08:16:10Z</time>
      </trkpt>
      <trkpt lat="45.99687" lon="5.68042">
        <ele>677.87</ele>
        <time>2023-05-08T08:16:18Z</time>
      </trkpt>
      <trkpt lat="45.99675" lon="5.68071">
        <ele>678.35</ele>
        <time>2023-05-08T08:16:34Z</time>
      </trkpt>
      <trkpt lat="45.99662" lon="5.68113">
        <ele>678.83</ele>
        <time>2023-05-08T08:16:54Z</time>
      </trkpt>
      <trkpt lat="45.99645" lon="5.6815">
        <ele>678.83</ele>
        <time>2023-05-08T08:17:12Z</time>
      </trkpt>
      <trkpt lat="45.99626" lon="5.68178">
        <ele>678.83</ele>
        <time>2023-05-08T08:17:31Z</time>
      </trkpt>
      <trkpt lat="45.99632" lon="5.6819">
        <ele>682.67</ele>
        <time>2023-05-08T08:17:40Z</time>
      </trkpt>
      <trkpt lat="45.99655" lon="5.68187">
        <ele>688.92</ele>
        <time>2023-05-08T08:17:59Z</time>
      </trkpt>
      <trkpt lat="45.99677" lon="5.68182">
        <ele>690.84</ele>
        <time>2023-05-08T08:18:13Z</time>
      </trkpt>
      <trkpt lat="45.997" lon="5.68182">
        <ele>687.96</ele>
        <time>2023-05-08T08:18:27Z</time>
      </trkpt>
      <trkpt lat="45.99721" lon="5.68179">
        <ele>688.92</ele>
        <time>2023-05-08T08:18:41Z</time>
      </trkpt>
      <trkpt lat="45.99737" lon="5.68181">
        <ele>687.96</ele>
        <time>2023-05-08T08:18:53Z</time>
      </trkpt>
      <trkpt lat="45.99761" lon="5.68179">
        <ele>688.92</ele>
        <time>2023-05-08T08:19:06Z</time>
      </trkpt>
      <trkpt lat="45.99784" lon="5.6818">
        <ele>689.88</ele>
        <time>2023-05-08T08:19:22Z</time>
      </trkpt>
      <trkpt lat="45.99806" lon="5.68179">
        <ele>690.36</ele>
        <time>2023-05-08T08:19:35Z</time>
      </trkpt>
      <trkpt lat="45.99829" lon="5.68184">
        <ele>688.92</ele>
        <time>2023-05-08T08:19:53Z</time>
      </trkpt>
      <trkpt lat="45.99854" lon="5.68177">
        <ele>687</ele>
        <time>2023-05-08T08:20:09Z</time>
      </trkpt>
      <trkpt lat="45.99886" lon="5.68162">
        <ele>681.23</ele>
        <time>2023-05-08T08:20:24Z</time>
      </trkpt>
      <trkpt lat="45.99907" lon="5.68148">
        <ele>679.31</ele>
        <time>2023-05-08T08:20:37Z</time>
      </trkpt>
      <trkpt lat="45.99925" lon="5.68129">
        <ele>679.31</ele>
        <time>2023-05-08T08:20:52Z</time>
      </trkpt>
      <trkpt lat="45.99935" lon="5.68117">
        <ele>676.91</ele>
        <time>2023-05-08T08:21:01Z</time>
      </trkpt>
      <trkpt lat="45.99936" lon="5.68116">
        <ele>676.91</ele>
        <time>2023-05-08T08:21:02Z</time>
      </trkpt>
      <trkpt lat="45.99938" lon="5.68114">
        <ele>676.91</ele>
        <time>2023-05-08T08:21:03Z</time>
      </trkpt>
      <trkpt lat="45.99939" lon="5.68113">
        <ele>676.91</ele>
        <time>2023-05-08T08:21:04Z</time>
      </trkpt>
      <trkpt lat="45.99939" lon="5.68111">
        <ele>676.91</ele>
        <time>2023-05-08T08:21:05Z</time>
      </trkpt>
      <trkpt lat="45.9994" lon="5.6811">
        <ele>676.91</ele>
        <time>2023-05-08T08:21:06Z</time>
      </trkpt>
      <trkpt lat="45.99955" lon="5.68089">
        <ele>676.42</ele>
        <time>2023-05-08T08:21:20Z</time>
      </trkpt>
      <trkpt lat="45.99975" lon="5.68068">
        <ele>673.06</ele>
        <time>2023-05-08T08:21:34Z</time>
      </trkpt>
      <trkpt lat="45.99999" lon="5.68049">
        <ele>673.06</ele>
        <time>2023-05-08T08:21:54Z</time>
      </trkpt>
      <trkpt lat="46.00022" lon="5.68039">
        <ele>675.46</ele>
        <time>2023-05-08T08:22:10Z</time>
      </trkpt>
      <trkpt lat="46.00042" lon="5.68033">
        <ele>676.91</ele>
        <time>2023-05-08T08:22:26Z</time>
      </trkpt>
      <trkpt lat="46.00064" lon="5.68011">
        <ele>676.91</ele>
        <time>2023-05-08T08:22:43Z</time>
      </trkpt>
      <trkpt lat="46.00084" lon="5.67991">
        <ele>674.02</ele>
        <time>2023-05-08T08:22:58Z</time>
      </trkpt>
      <trkpt lat="46.00099" lon="5.67981">
        <ele>669.22</ele>
        <time>2023-05-08T08:23:11Z</time>
      </trkpt>
      <trkpt lat="46.00108" lon="5.67959">
        <ele>667.29</ele>
        <time>2023-05-08T08:23:26Z</time>
      </trkpt>
      <trkpt lat="46.00116" lon="5.67926">
        <ele>669.22</ele>
        <time>2023-05-08T08:23:42Z</time>
      </trkpt>
      <trkpt lat="46.00131" lon="5.67888">
        <ele>671.62</ele>
        <time>2023-05-08T08:23:59Z</time>
      </trkpt>
      <trkpt lat="46.0015" lon="5.6786">
        <ele>670.18</ele>
        <time>2023-05-08T08:24:15Z</time>
      </trkpt>
      <trkpt lat="46.00163" lon="5.67833">
        <ele>671.14</ele>
        <time>2023-05-08T08:24:31Z</time>
      </trkpt>
      <trkpt lat="46.00173" lon="5.67814">
        <ele>668.25</ele>
        <time>2023-05-08T08:24:48Z</time>
      </trkpt>
      <trkpt lat="46.00177" lon="5.67806">
        <ele>662.01</ele>
        <time>2023-05-08T08:25:09Z</time>
      </trkpt>
      <trkpt lat="46.00183" lon="5.67806">
        <ele>662.49</ele>
        <time>2023-05-08T08:25:12Z</time>
      </trkpt>
      <trkpt lat="46.00193" lon="5.6781">
        <ele>666.33</ele>
        <time>2023-05-08T08:25:30Z</time>
      </trkpt>
      <trkpt lat="46.00193" lon="5.67808">
        <ele>668.73</ele>
        <time>2023-05-08T08:26:01Z</time>
      </trkpt>
      <trkpt lat="46.00194" lon="5.67813">
        <ele>670.66</ele>
        <time>2023-05-08T08:26:25Z</time>
      </trkpt>
      <trkpt lat="46.00193" lon="5.67814">
        <ele>670.66</ele>
        <time>2023-05-08T08:26:26Z</time>
      </trkpt>
      <trkpt lat="46.0019" lon="5.67818">
        <ele>670.66</ele>
        <time>2023-05-08T08:26:28Z</time>
      </trkpt>
      <trkpt lat="46.00189" lon="5.67821">
        <ele>670.18</ele>
        <time>2023-05-08T08:26:29Z</time>
      </trkpt>
      <trkpt lat="46.00181" lon="5.67847">
        <ele>667.77</ele>
        <time>2023-05-08T08:26:43Z</time>
      </trkpt>
      <trkpt lat="46.00183" lon="5.67847">
        <ele>667.29</ele>
        <time>2023-05-08T08:26:44Z</time>
      </trkpt>
      <trkpt lat="46.00185" lon="5.67847">
        <ele>666.81</ele>
        <time>2023-05-08T08:26:45Z</time>
      </trkpt>
      <trkpt lat="46.00187" lon="5.67846">
        <ele>666.33</ele>
        <time>2023-05-08T08:26:46Z</time>
      </trkpt>
      <trkpt lat="46.00188" lon="5.67845">
        <ele>665.85</ele>
        <time>2023-05-08T08:26:47Z</time>
      </trkpt>
      <trkpt lat="46.00215" lon="5.67837">
        <ele>660.08</ele>
        <time>2023-05-08T08:27:05Z</time>
      </trkpt>
      <trkpt lat="46.00247" lon="5.67839">
        <ele>660.08</ele>
        <time>2023-05-08T08:27:23Z</time>
      </trkpt>
      <trkpt lat="46.00274" lon="5.6784">
        <ele>666.33</ele>
        <time>2023-05-08T08:27:39Z</time>
      </trkpt>
      <trkpt lat="46.00292" lon="5.67857">
        <ele>672.1</ele>
        <time>2023-05-08T08:27:55Z</time>
      </trkpt>
      <trkpt lat="46.00317" lon="5.67891">
        <ele>679.31</ele>
        <time>2023-05-08T08:28:13Z</time>
      </trkpt>
      <trkpt lat="46.00336" lon="5.67921">
        <ele>687.96</ele>
        <time>2023-05-08T08:28:30Z</time>
      </trkpt>
      <trkpt lat="46.00358" lon="5.67949">
        <ele>699.98</ele>
        <time>2023-05-08T08:28:47Z</time>
      </trkpt>
      <trkpt lat="46.00377" lon="5.67978">
        <ele>712.47</ele>
        <time>2023-05-08T08:29:07Z</time>
      </trkpt>
      <trkpt lat="46.00389" lon="5.68009">
        <ele>715.36</ele>
        <time>2023-05-08T08:29:22Z</time>
      </trkpt>
      <trkpt lat="46.004" lon="5.68041">
        <ele>715.84</ele>
        <time>2023-05-08T08:29:37Z</time>
      </trkpt>
      <trkpt lat="46.00416" lon="5.68062">
        <ele>719.68</ele>
        <time>2023-05-08T08:29:53Z</time>
      </trkpt>
      <trkpt lat="46.00439" lon="5.68089">
        <ele>726.89</ele>
        <time>2023-05-08T08:30:12Z</time>
      </trkpt>
      <trkpt lat="46.00458" lon="5.68125">
        <ele>732.18</ele>
        <time>2023-05-08T08:30:29Z</time>
      </trkpt>
      <trkpt lat="46.00468" lon="5.68163">
        <ele>735.55</ele>
        <time>2023-05-08T08:30:44Z</time>
      </trkpt>
      <trkpt lat="46.00475" lon="5.68205">
        <ele>738.43</ele>
        <time>2023-05-08T08:31:03Z</time>
      </trkpt>
      <trkpt lat="46.0049" lon="5.68226">
        <ele>740.83</ele>
        <time>2023-05-08T08:31:19Z</time>
      </trkpt>
      <trkpt lat="46.00517" lon="5.68237">
        <ele>744.2</ele>
        <time>2023-05-08T08:31:37Z</time>
      </trkpt>
      <trkpt lat="46.00538" lon="5.68257">
        <ele>746.6</ele>
        <time>2023-05-08T08:31:54Z</time>
      </trkpt>
      <trkpt lat="46.00537" lon="5.68299">
        <ele>745.64</ele>
        <time>2023-05-08T08:32:13Z</time>
      </trkpt>
      <trkpt lat="46.00544" lon="5.68335">
        <ele>748.04</ele>
        <time>2023-05-08T08:32:30Z</time>
      </trkpt>
      <trkpt lat="46.00565" lon="5.68369">
        <ele>751.41</ele>
        <time>2023-05-08T08:32:51Z</time>
      </trkpt>
      <trkpt lat="46.00591" lon="5.68381">
        <ele>752.85</ele>
        <time>2023-05-08T08:33:07Z</time>
      </trkpt>
      <trkpt lat="46.00622" lon="5.68382">
        <ele>754.29</ele>
        <time>2023-05-08T08:33:25Z</time>
      </trkpt>
      <trkpt lat="46.00641" lon="5.68392">
        <ele>758.14</ele>
        <time>2023-05-08T08:33:42Z</time>
      </trkpt>
      <trkpt lat="46.00644" lon="5.6839">
        <ele>759.58</ele>
        <time>2023-05-08T08:33:45Z</time>
      </trkpt>
      <trkpt lat="46.00645" lon="5.68389">
        <ele>759.58</ele>
        <time>2023-05-08T08:33:46Z</time>
      </trkpt>
      <trkpt lat="46.00668" lon="5.68366">
        <ele>761.98</ele>
        <time>2023-05-08T08:34:04Z</time>
      </trkpt>
      <trkpt lat="46.00691" lon="5.68363">
        <ele>762.46</ele>
        <time>2023-05-08T08:34:17Z</time>
      </trkpt>
      <trkpt lat="46.00721" lon="5.68354">
        <ele>762.46</ele>
        <time>2023-05-08T08:34:35Z</time>
      </trkpt>
      <trkpt lat="46.00749" lon="5.68345">
        <ele>763.42</ele>
        <time>2023-05-08T08:34:52Z</time>
      </trkpt>
      <trkpt lat="46.00778" lon="5.68339">
        <ele>764.39</ele>
        <time>2023-05-08T08:35:10Z</time>
      </trkpt>
      <trkpt lat="46.00804" lon="5.68323">
        <ele>767.75</ele>
        <time>2023-05-08T08:35:28Z</time>
      </trkpt>
      <trkpt lat="46.00825" lon="5.683">
        <ele>770.63</ele>
        <time>2023-05-08T08:35:46Z</time>
      </trkpt>
      <trkpt lat="46.00843" lon="5.68272">
        <ele>771.6</ele>
        <time>2023-05-08T08:36:03Z</time>
      </trkpt>
      <trkpt lat="46.00858" lon="5.68247">
        <ele>772.56</ele>
        <time>2023-05-08T08:36:15Z</time>
      </trkpt>
      <trkpt lat="46.00878" lon="5.68223">
        <ele>774.96</ele>
        <time>2023-05-08T08:36:31Z</time>
      </trkpt>
      <trkpt lat="46.00902" lon="5.68203">
        <ele>778.81</ele>
        <time>2023-05-08T08:36:48Z</time>
      </trkpt>
      <trkpt lat="46.00927" lon="5.68187">
        <ele>783.13</ele>
        <time>2023-05-08T08:37:05Z</time>
      </trkpt>
      <trkpt lat="46.00954" lon="5.68181">
        <ele>787.46</ele>
        <time>2023-05-08T08:37:24Z</time>
      </trkpt>
      <trkpt lat="46.00978" lon="5.68186">
        <ele>790.34</ele>
        <time>2023-05-08T08:37:38Z</time>
      </trkpt>
      <trkpt lat="46.01006" lon="5.68197">
        <ele>793.71</ele>
        <time>2023-05-08T08:37:54Z</time>
      </trkpt>
      <trkpt lat="46.01035" lon="5.68203">
        <ele>795.15</ele>
        <time>2023-05-08T08:38:11Z</time>
      </trkpt>
      <trkpt lat="46.0106" lon="5.68202">
        <ele>796.59</ele>
        <time>2023-05-08T08:38:28Z</time>
      </trkpt>
      <trkpt lat="46.01087" lon="5.68216">
        <ele>798.99</ele>
        <time>2023-05-08T08:38:45Z</time>
      </trkpt>
      <trkpt lat="46.01113" lon="5.68244">
        <ele>805.24</ele>
        <time>2023-05-08T08:39:05Z</time>
      </trkpt>
      <trkpt lat="46.0114" lon="5.68257">
        <ele>811.97</ele>
        <time>2023-05-08T08:39:22Z</time>
      </trkpt>
      <trkpt lat="46.01155" lon="5.68274">
        <ele>820.14</ele>
        <time>2023-05-08T08:39:37Z</time>
      </trkpt>
      <trkpt lat="46.01159" lon="5.68278">
        <ele>822.06</ele>
        <time>2023-05-08T08:39:40Z</time>
      </trkpt>
      <trkpt lat="46.01176" lon="5.6829">
        <ele>826.39</ele>
        <time>2023-05-08T08:39:52Z</time>
      </trkpt>
      <trkpt lat="46.01177" lon="5.68289">
        <ele>826.39</ele>
        <time>2023-05-08T08:39:53Z</time>
      </trkpt>
      <trkpt lat="46.01179" lon="5.68289">
        <ele>826.39</ele>
        <time>2023-05-08T08:39:54Z</time>
      </trkpt>
      <trkpt lat="46.01206" lon="5.68284">
        <ele>827.35</ele>
        <time>2023-05-08T08:40:09Z</time>
      </trkpt>
      <trkpt lat="46.01239" lon="5.68291">
        <ele>826.87</ele>
        <time>2023-05-08T08:40:26Z</time>
      </trkpt>
      <trkpt lat="46.01244" lon="5.68291">
        <ele>826.39</ele>
        <time>2023-05-08T08:40:29Z</time>
      </trkpt>
      <trkpt lat="46.01267" lon="5.68303">
        <ele>827.35</ele>
        <time>2023-05-08T08:40:42Z</time>
      </trkpt>
      <trkpt lat="46.01293" lon="5.68313">
        <ele>829.76</ele>
        <time>2023-05-08T08:40:59Z</time>
      </trkpt>
      <trkpt lat="46.01317" lon="5.68322">
        <ele>832.64</ele>
        <time>2023-05-08T08:41:14Z</time>
      </trkpt>
      <trkpt lat="46.01334" lon="5.68331">
        <ele>838.89</ele>
        <time>2023-05-08T08:41:28Z</time>
      </trkpt>
      <trkpt lat="46.01336" lon="5.6833">
        <ele>839.37</ele>
        <time>2023-05-08T08:41:29Z</time>
      </trkpt>
      <trkpt lat="46.01337" lon="5.6833">
        <ele>839.37</ele>
        <time>2023-05-08T08:41:30Z</time>
      </trkpt>
      <trkpt lat="46.01363" lon="5.6833">
        <ele>842.73</ele>
        <time>2023-05-08T08:41:46Z</time>
      </trkpt>
      <trkpt lat="46.01384" lon="5.68347">
        <ele>848.98</ele>
        <time>2023-05-08T08:42:01Z</time>
      </trkpt>
      <trkpt lat="46.014" lon="5.68359">
        <ele>854.27</ele>
        <time>2023-05-08T08:42:15Z</time>
      </trkpt>
      <trkpt lat="46.01427" lon="5.68364">
        <ele>866.29</ele>
        <time>2023-05-08T08:42:33Z</time>
      </trkpt>
      <trkpt lat="46.01449" lon="5.68361">
        <ele>870.13</ele>
        <time>2023-05-08T08:42:46Z</time>
      </trkpt>
      <trkpt lat="46.01474" lon="5.68371">
        <ele>875.42</ele>
        <time>2023-05-08T08:43:03Z</time>
      </trkpt>
      <trkpt lat="46.01498" lon="5.68374">
        <ele>885.99</ele>
        <time>2023-05-08T08:43:22Z</time>
      </trkpt>
      <trkpt lat="46.01519" lon="5.68375">
        <ele>887.91</ele>
        <time>2023-05-08T08:43:38Z</time>
      </trkpt>
      <trkpt lat="46.01544" lon="5.68375">
        <ele>893.68</ele>
        <time>2023-05-08T08:43:54Z</time>
      </trkpt>
      <trkpt lat="46.01564" lon="5.68383">
        <ele>903.78</ele>
        <time>2023-05-08T08:44:11Z</time>
      </trkpt>
      <trkpt lat="46.01586" lon="5.68384">
        <ele>909.06</ele>
        <time>2023-05-08T08:44:28Z</time>
      </trkpt>
      <trkpt lat="46.01593" lon="5.68382">
        <ele>909.06</ele>
        <time>2023-05-08T08:44:32Z</time>
      </trkpt>
      <trkpt lat="46.01595" lon="5.68381">
        <ele>909.06</ele>
        <time>2023-05-08T08:44:33Z</time>
      </trkpt>
      <trkpt lat="46.0162" lon="5.68387">
        <ele>906.66</ele>
        <time>2023-05-08T08:44:47Z</time>
      </trkpt>
      <trkpt lat="46.01655" lon="5.68393">
        <ele>909.06</ele>
        <time>2023-05-08T08:45:05Z</time>
      </trkpt>
      <trkpt lat="46.01678" lon="5.68392">
        <ele>910.99</ele>
        <time>2023-05-08T08:45:21Z</time>
      </trkpt>
      <trkpt lat="46.0171" lon="5.68401">
        <ele>912.43</ele>
        <time>2023-05-08T08:45:39Z</time>
      </trkpt>
      <trkpt lat="46.01725" lon="5.68407">
        <ele>915.31</ele>
        <time>2023-05-08T08:45:50Z</time>
      </trkpt>
      <trkpt lat="46.01745" lon="5.68421">
        <ele>922.04</ele>
        <time>2023-05-08T08:46:07Z</time>
      </trkpt>
      <trkpt lat="46.01755" lon="5.6843">
        <ele>922.52</ele>
        <time>2023-05-08T08:46:13Z</time>
      </trkpt>
      <trkpt lat="46.01787" lon="5.68427">
        <ele>920.6</ele>
        <time>2023-05-08T08:46:29Z</time>
      </trkpt>
      <trkpt lat="46.01815" lon="5.68426">
        <ele>918.2</ele>
        <time>2023-05-08T08:46:45Z</time>
      </trkpt>
      <trkpt lat="46.01832" lon="5.68431">
        <ele>922.04</ele>
        <time>2023-05-08T08:47:00Z</time>
      </trkpt>
      <trkpt lat="46.01857" lon="5.68432">
        <ele>928.77</ele>
        <time>2023-05-08T08:47:17Z</time>
      </trkpt>
      <trkpt lat="46.01889" lon="5.68428">
        <ele>934.54</ele>
        <time>2023-05-08T08:47:36Z</time>
      </trkpt>
      <trkpt lat="46.0192" lon="5.68429">
        <ele>934.06</ele>
        <time>2023-05-08T08:47:54Z</time>
      </trkpt>
      <trkpt lat="46.0195" lon="5.68424">
        <ele>936.46</ele>
        <time>2023-05-08T08:48:12Z</time>
      </trkpt>
      <trkpt lat="46.01976" lon="5.68421">
        <ele>942.23</ele>
        <time>2023-05-08T08:48:27Z</time>
      </trkpt>
      <trkpt lat="46.02001" lon="5.68416">
        <ele>943.19</ele>
        <time>2023-05-08T08:48:45Z</time>
      </trkpt>
      <trkpt lat="46.02028" lon="5.68413">
        <ele>947.52</ele>
        <time>2023-05-08T08:49:03Z</time>
      </trkpt>
      <trkpt lat="46.02049" lon="5.68417">
        <ele>951.36</ele>
        <time>2023-05-08T08:49:18Z</time>
      </trkpt>
      <trkpt lat="46.02083" lon="5.68413">
        <ele>956.65</ele>
        <time>2023-05-08T08:49:38Z</time>
      </trkpt>
      <trkpt lat="46.02113" lon="5.68418">
        <ele>957.61</ele>
        <time>2023-05-08T08:49:57Z</time>
      </trkpt>
      <trkpt lat="46.02143" lon="5.68423">
        <ele>958.09</ele>
        <time>2023-05-08T08:50:16Z</time>
      </trkpt>
      <trkpt lat="46.02172" lon="5.68423">
        <ele>963.38</ele>
        <time>2023-05-08T08:50:38Z</time>
      </trkpt>
      <trkpt lat="46.02199" lon="5.6842">
        <ele>967.7</ele>
        <time>2023-05-08T08:50:56Z</time>
      </trkpt>
      <trkpt lat="46.02231" lon="5.6842">
        <ele>969.63</ele>
        <time>2023-05-08T08:51:15Z</time>
      </trkpt>
      <trkpt lat="46.02265" lon="5.68419">
        <ele>970.11</ele>
        <time>2023-05-08T08:51:34Z</time>
      </trkpt>
      <trkpt lat="46.02299" lon="5.6842">
        <ele>969.63</ele>
        <time>2023-05-08T08:51:53Z</time>
      </trkpt>
      <trkpt lat="46.02326" lon="5.68421">
        <ele>965.78</ele>
        <time>2023-05-08T08:52:11Z</time>
      </trkpt>
      <trkpt lat="46.02327" lon="5.68424">
        <ele>965.3</ele>
        <time>2023-05-08T08:52:12Z</time>
      </trkpt>
      <trkpt lat="46.02326" lon="5.68426">
        <ele>965.3</ele>
        <time>2023-05-08T08:52:13Z</time>
      </trkpt>
      <trkpt lat="46.02326" lon="5.68428">
        <ele>965.3</ele>
        <time>2023-05-08T08:52:14Z</time>
      </trkpt>
      <trkpt lat="46.02325" lon="5.68429">
        <ele>965.3</ele>
        <time>2023-05-08T08:52:15Z</time>
      </trkpt>
      <trkpt lat="46.02303" lon="5.68445">
        <ele>968.18</ele>
        <time>2023-05-08T08:52:33Z</time>
      </trkpt>
      <trkpt lat="46.02275" lon="5.68458">
        <ele>971.07</ele>
        <time>2023-05-08T08:52:54Z</time>
      </trkpt>
      <trkpt lat="46.02255" lon="5.68477">
        <ele>973.47</ele>
        <time>2023-05-08T08:53:10Z</time>
      </trkpt>
      <trkpt lat="46.02254" lon="5.68492">
        <ele>971.07</ele>
        <time>2023-05-08T08:53:23Z</time>
      </trkpt>
      <trkpt lat="46.02256" lon="5.68491">
        <ele>968.67</ele>
        <time>2023-05-08T08:53:39Z</time>
      </trkpt>
      <trkpt lat="46.02257" lon="5.68488">
        <ele>963.86</ele>
        <time>2023-05-08T08:54:19Z</time>
      </trkpt>
      <trkpt lat="46.02259" lon="5.68491">
        <ele>961.94</ele>
        <time>2023-05-08T08:54:45Z</time>
      </trkpt>
      <trkpt lat="46.02257" lon="5.685">
        <ele>968.67</ele>
        <time>2023-05-08T08:55:07Z</time>
      </trkpt>
      <trkpt lat="46.02258" lon="5.6853">
        <ele>971.07</ele>
        <time>2023-05-08T08:55:25Z</time>
      </trkpt>
      <trkpt lat="46.02261" lon="5.68566">
        <ele>977.32</ele>
        <time>2023-05-08T08:55:46Z</time>
      </trkpt>
      <trkpt lat="46.02262" lon="5.68612">
        <ele>983.57</ele>
        <time>2023-05-08T08:56:06Z</time>
      </trkpt>
      <trkpt lat="46.02252" lon="5.6865">
        <ele>988.37</ele>
        <time>2023-05-08T08:56:24Z</time>
      </trkpt>
      <trkpt lat="46.02222" lon="5.68681">
        <ele>993.18</ele>
        <time>2023-05-08T08:56:46Z</time>
      </trkpt>
      <trkpt lat="46.0219" lon="5.68693">
        <ele>997.51</ele>
        <time>2023-05-08T08:57:05Z</time>
      </trkpt>
      <trkpt lat="46.0216" lon="5.68704">
        <ele>1004.23</ele>
        <time>2023-05-08T08:57:28Z</time>
      </trkpt>
      <trkpt lat="46.02132" lon="5.68703">
        <ele>1005.2</ele>
        <time>2023-05-08T08:57:48Z</time>
      </trkpt>
      <trkpt lat="46.0213" lon="5.68703">
        <ele>1004.72</ele>
        <time>2023-05-08T08:57:49Z</time>
      </trkpt>
      <trkpt lat="46.02129" lon="5.68702">
        <ele>1004.72</ele>
        <time>2023-05-08T08:57:50Z</time>
      </trkpt>
      <trkpt lat="46.02095" lon="5.68698">
        <ele>1004.72</ele>
        <time>2023-05-08T08:58:11Z</time>
      </trkpt>
      <trkpt lat="46.02066" lon="5.68717">
        <ele>1005.2</ele>
        <time>2023-05-08T08:58:31Z</time>
      </trkpt>
      <trkpt lat="46.02041" lon="5.68736">
        <ele>1010.48</ele>
        <time>2023-05-08T08:58:50Z</time>
      </trkpt>
      <trkpt lat="46.02016" lon="5.68751">
        <ele>1009.52</ele>
        <time>2023-05-08T08:59:10Z</time>
      </trkpt>
      <trkpt lat="46.0204" lon="5.68751">
        <ele>1007.6</ele>
        <time>2023-05-08T08:59:29Z</time>
      </trkpt>
      <trkpt lat="46.02068" lon="5.6875">
        <ele>1011.44</ele>
        <time>2023-05-08T08:59:48Z</time>
      </trkpt>
      <trkpt lat="46.02099" lon="5.68764">
        <ele>1014.81</ele>
        <time>2023-05-08T09:00:08Z</time>
      </trkpt>
      <trkpt lat="46.02134" lon="5.68767">
        <ele>1014.81</ele>
        <time>2023-05-08T09:00:28Z</time>
      </trkpt>
      <trkpt lat="46.02155" lon="5.68776">
        <ele>1015.29</ele>
        <time>2023-05-08T09:00:41Z</time>
      </trkpt>
      <trkpt lat="46.02186" lon="5.6879">
        <ele>1018.65</ele>
        <time>2023-05-08T09:01:00Z</time>
      </trkpt>
      <trkpt lat="46.02219" lon="5.68799">
        <ele>1022.5</ele>
        <time>2023-05-08T09:01:20Z</time>
      </trkpt>
      <trkpt lat="46.02252" lon="5.688">
        <ele>1027.79</ele>
        <time>2023-05-08T09:01:40Z</time>
      </trkpt>
      <trkpt lat="46.02284" lon="5.68803">
        <ele>1031.15</ele>
        <time>2023-05-08T09:02:00Z</time>
      </trkpt>
      <trkpt lat="46.02296" lon="5.68812">
        <ele>1033.55</ele>
        <time>2023-05-08T09:02:08Z</time>
      </trkpt>
      <trkpt lat="46.0232" lon="5.68848">
        <ele>1037.88</ele>
        <time>2023-05-08T09:02:29Z</time>
      </trkpt>
      <trkpt lat="46.02323" lon="5.68879">
        <ele>1045.57</ele>
        <time>2023-05-08T09:02:49Z</time>
      </trkpt>
      <trkpt lat="46.02321" lon="5.68884">
        <ele>1046.53</ele>
        <time>2023-05-08T09:02:51Z</time>
      </trkpt>
      <trkpt lat="46.02306" lon="5.68932">
        <ele>1046.53</ele>
        <time>2023-05-08T09:03:09Z</time>
      </trkpt>
      <trkpt lat="46.02313" lon="5.6895">
        <ele>1045.57</ele>
        <time>2023-05-08T09:03:26Z</time>
      </trkpt>
      <trkpt lat="46.02315" lon="5.68953">
        <ele>1044.61</ele>
        <time>2023-05-08T09:03:57Z</time>
      </trkpt>
      <trkpt lat="46.02315" lon="5.68956">
        <ele>1041.73</ele>
        <time>2023-05-08T09:04:20Z</time>
      </trkpt>
      <trkpt lat="46.02314" lon="5.68956">
        <ele>1039.32</ele>
        <time>2023-05-08T09:04:45Z</time>
      </trkpt>
      <trkpt lat="46.02338" lon="5.68969">
        <ele>1041.25</ele>
        <time>2023-05-08T09:05:05Z</time>
      </trkpt>
      <trkpt lat="46.02364" lon="5.68978">
        <ele>1047.49</ele>
        <time>2023-05-08T09:05:25Z</time>
      </trkpt>
      <trkpt lat="46.02365" lon="5.68981">
        <ele>1052.3</ele>
        <time>2023-05-08T09:05:52Z</time>
      </trkpt>
      <trkpt lat="46.02369" lon="5.68985">
        <ele>1053.74</ele>
        <time>2023-05-08T09:06:07Z</time>
      </trkpt>
      <trkpt lat="46.02374" lon="5.68996">
        <ele>1054.22</ele>
        <time>2023-05-08T09:06:18Z</time>
      </trkpt>
      <trkpt lat="46.02374" lon="5.69034">
        <ele>1056.63</ele>
        <time>2023-05-08T09:06:37Z</time>
      </trkpt>
      <trkpt lat="46.02365" lon="5.69076">
        <ele>1059.99</ele>
        <time>2023-05-08T09:06:58Z</time>
      </trkpt>
      <trkpt lat="46.02354" lon="5.6912">
        <ele>1061.91</ele>
        <time>2023-05-08T09:07:19Z</time>
      </trkpt>
      <trkpt lat="46.02344" lon="5.69164">
        <ele>1064.32</ele>
        <time>2023-05-08T09:07:41Z</time>
      </trkpt>
      <trkpt lat="46.02335" lon="5.69207">
        <ele>1063.36</ele>
        <time>2023-05-08T09:08:00Z</time>
      </trkpt>
      <trkpt lat="46.02324" lon="5.69254">
        <ele>1067.2</ele>
        <time>2023-05-08T09:08:23Z</time>
      </trkpt>
      <trkpt lat="46.02322" lon="5.69292">
        <ele>1072.97</ele>
        <time>2023-05-08T09:08:43Z</time>
      </trkpt>
      <trkpt lat="46.02313" lon="5.69331">
        <ele>1078.74</ele>
        <time>2023-05-08T09:09:04Z</time>
      </trkpt>
      <trkpt lat="46.02318" lon="5.69373">
        <ele>1081.62</ele>
        <time>2023-05-08T09:09:25Z</time>
      </trkpt>
      <trkpt lat="46.02323" lon="5.6941">
        <ele>1084.02</ele>
        <time>2023-05-08T09:09:42Z</time>
      </trkpt>
      <trkpt lat="46.02328" lon="5.69445">
        <ele>1086.91</ele>
        <time>2023-05-08T09:10:00Z</time>
      </trkpt>
      <trkpt lat="46.02342" lon="5.69469">
        <ele>1086.91</ele>
        <time>2023-05-08T09:10:14Z</time>
      </trkpt>
      <trkpt lat="46.02373" lon="5.69483">
        <ele>1085.95</ele>
        <time>2023-05-08T09:10:36Z</time>
      </trkpt>
      <trkpt lat="46.02394" lon="5.69498">
        <ele>1085.47</ele>
        <time>2023-05-08T09:10:54Z</time>
      </trkpt>
      <trkpt lat="46.02394" lon="5.69501">
        <ele>1085.95</ele>
        <time>2023-05-08T09:10:58Z</time>
      </trkpt>
      <trkpt lat="46.02395" lon="5.69511">
        <ele>1085.47</ele>
        <time>2023-05-08T09:11:03Z</time>
      </trkpt>
      <trkpt lat="46.02403" lon="5.69529">
        <ele>1085.95</ele>
        <time>2023-05-08T09:11:13Z</time>
      </trkpt>
      <trkpt lat="46.02419" lon="5.69531">
        <ele>1085.95</ele>
        <time>2023-05-08T09:11:26Z</time>
      </trkpt>
      <trkpt lat="46.02422" lon="5.69535">
        <ele>1085.95</ele>
        <time>2023-05-08T09:11:39Z</time>
      </trkpt>
      <trkpt lat="46.02422" lon="5.69535">
        <ele>1085.95</ele>
        <time>2023-05-08T09:11:49Z</time>
      </trkpt>
      <trkpt lat="46.02421" lon="5.69529">
        <ele>1085.95</ele>
        <time>2023-05-08T09:11:54Z</time>
      </trkpt>
      <trkpt lat="46.02434" lon="5.69515">
        <ele>1086.43</ele>
        <time>2023-05-08T09:12:08Z</time>
      </trkpt>
      <trkpt lat="46.02434" lon="5.69516">
        <ele>1087.39</ele>
        <time>2023-05-08T09:12:20Z</time>
      </trkpt>
      <trkpt lat="46.02452" lon="5.69543">
        <ele>1087.87</ele>
        <time>2023-05-08T09:12:38Z</time>
      </trkpt>
      <trkpt lat="46.02463" lon="5.69564">
        <ele>1087.87</ele>
        <time>2023-05-08T09:12:57Z</time>
      </trkpt>
      <trkpt lat="46.02463" lon="5.69564">
        <ele>1087.39</ele>
        <time>2023-05-08T09:12:58Z</time>
      </trkpt>
      <trkpt lat="46.02468" lon="5.69566">
        <ele>1087.87</ele>
        <time>2023-05-08T09:13:02Z</time>
      </trkpt>
      <trkpt lat="46.02496" lon="5.69574">
        <ele>1091.71</ele>
        <time>2023-05-08T09:13:21Z</time>
      </trkpt>
      <trkpt lat="46.02518" lon="5.69582">
        <ele>1096.52</ele>
        <time>2023-05-08T09:13:36Z</time>
      </trkpt>
      <trkpt lat="46.02544" lon="5.69591">
        <ele>1101.81</ele>
        <time>2023-05-08T09:13:54Z</time>
      </trkpt>
      <trkpt lat="46.02573" lon="5.69604">
        <ele>1107.58</ele>
        <time>2023-05-08T09:14:13Z</time>
      </trkpt>
      <trkpt lat="46.026" lon="5.69628">
        <ele>1112.86</ele>
        <time>2023-05-08T09:14:34Z</time>
      </trkpt>
      <trkpt lat="46.02612" lon="5.69658">
        <ele>1117.19</ele>
        <time>2023-05-08T09:14:56Z</time>
      </trkpt>
      <trkpt lat="46.02614" lon="5.69661">
        <ele>1116.23</ele>
        <time>2023-05-08T09:15:27Z</time>
      </trkpt>
      <trkpt lat="46.02614" lon="5.69664">
        <ele>1116.23</ele>
        <time>2023-05-08T09:15:35Z</time>
      </trkpt>
      <trkpt lat="46.02613" lon="5.69681">
        <ele>1117.67</ele>
        <time>2023-05-08T09:15:53Z</time>
      </trkpt>
      <trkpt lat="46.02612" lon="5.69692">
        <ele>1119.11</ele>
        <time>2023-05-08T09:16:19Z</time>
      </trkpt>
      <trkpt lat="46.02609" lon="5.69714">
        <ele>1115.75</ele>
        <time>2023-05-08T09:16:34Z</time>
      </trkpt>
      <trkpt lat="46.02604" lon="5.69762">
        <ele>1111.9</ele>
        <time>2023-05-08T09:16:55Z</time>
      </trkpt>
      <trkpt lat="46.02598" lon="5.69815">
        <ele>1110.46</ele>
        <time>2023-05-08T09:17:18Z</time>
      </trkpt>
      <trkpt lat="46.02595" lon="5.69859">
        <ele>1112.38</ele>
        <time>2023-05-08T09:17:36Z</time>
      </trkpt>
      <trkpt lat="46.02595" lon="5.69903">
        <ele>1112.86</ele>
        <time>2023-05-08T09:17:57Z</time>
      </trkpt>
      <trkpt lat="46.02598" lon="5.69945">
        <ele>1114.79</ele>
        <time>2023-05-08T09:18:17Z</time>
      </trkpt>
      <trkpt lat="46.02601" lon="5.70005">
        <ele>1114.31</ele>
        <time>2023-05-08T09:18:41Z</time>
      </trkpt>
      <trkpt lat="46.026" lon="5.70015">
        <ele>1114.31</ele>
        <time>2023-05-08T09:18:56Z</time>
      </trkpt>
      <trkpt lat="46.02596" lon="5.70035">
        <ele>1114.79</ele>
        <time>2023-05-08T09:19:09Z</time>
      </trkpt>
      <trkpt lat="46.02593" lon="5.70044">
        <ele>1114.79</ele>
        <time>2023-05-08T09:19:25Z</time>
      </trkpt>
      <trkpt lat="46.02592" lon="5.70049">
        <ele>1116.23</ele>
        <time>2023-05-08T09:19:45Z</time>
      </trkpt>
      <trkpt lat="46.02595" lon="5.70049">
        <ele>1113.82</ele>
        <time>2023-05-08T09:20:09Z</time>
      </trkpt>
      <trkpt lat="46.02592" lon="5.70057">
        <ele>1113.34</ele>
        <time>2023-05-08T09:20:13Z</time>
      </trkpt>
      <trkpt lat="46.0258" lon="5.70086">
        <ele>1111.9</ele>
        <time>2023-05-08T09:20:32Z</time>
      </trkpt>
      <trkpt lat="46.02581" lon="5.70117">
        <ele>1115.75</ele>
        <time>2023-05-08T09:20:52Z</time>
      </trkpt>
      <trkpt lat="46.0255" lon="5.70124">
        <ele>1117.19</ele>
        <time>2023-05-08T09:21:10Z</time>
      </trkpt>
      <trkpt lat="46.0253" lon="5.7014">
        <ele>1120.07</ele>
        <time>2023-05-08T09:21:30Z</time>
      </trkpt>
      <trkpt lat="46.02516" lon="5.70159">
        <ele>1121.52</ele>
        <time>2023-05-08T09:21:46Z</time>
      </trkpt>
      <trkpt lat="46.02536" lon="5.70182">
        <ele>1126.8</ele>
        <time>2023-05-08T09:22:05Z</time>
      </trkpt>
      <trkpt lat="46.02566" lon="5.70206">
        <ele>1130.17</ele>
        <time>2023-05-08T09:22:25Z</time>
      </trkpt>
      <trkpt lat="46.02582" lon="5.70223">
        <ele>1131.61</ele>
        <time>2023-05-08T09:22:37Z</time>
      </trkpt>
      <trkpt lat="46.02608" lon="5.70249">
        <ele>1139.3</ele>
        <time>2023-05-08T09:22:59Z</time>
      </trkpt>
      <trkpt lat="46.02638" lon="5.70271">
        <ele>1143.14</ele>
        <time>2023-05-08T09:23:20Z</time>
      </trkpt>
      <trkpt lat="46.02664" lon="5.70283">
        <ele>1144.59</ele>
        <time>2023-05-08T09:23:37Z</time>
      </trkpt>
      <trkpt lat="46.02687" lon="5.70296">
        <ele>1146.51</ele>
        <time>2023-05-08T09:23:53Z</time>
      </trkpt>
      <trkpt lat="46.0271" lon="5.70313">
        <ele>1143.63</ele>
        <time>2023-05-08T09:24:11Z</time>
      </trkpt>
      <trkpt lat="46.02713" lon="5.70314">
        <ele>1143.14</ele>
        <time>2023-05-08T09:24:14Z</time>
      </trkpt>
      <trkpt lat="46.02745" lon="5.70327">
        <ele>1142.66</ele>
        <time>2023-05-08T09:24:33Z</time>
      </trkpt>
      <trkpt lat="46.02777" lon="5.70349">
        <ele>1145.55</ele>
        <time>2023-05-08T09:24:55Z</time>
      </trkpt>
      <trkpt lat="46.02798" lon="5.70358">
        <ele>1146.51</ele>
        <time>2023-05-08T09:25:08Z</time>
      </trkpt>
      <trkpt lat="46.02813" lon="5.70364">
        <ele>1148.43</ele>
        <time>2023-05-08T09:25:18Z</time>
      </trkpt>
      <trkpt lat="46.02814" lon="5.70364">
        <ele>1148.43</ele>
        <time>2023-05-08T09:25:19Z</time>
      </trkpt>
      <trkpt lat="46.02831" lon="5.70359">
        <ele>1152.28</ele>
        <time>2023-05-08T09:25:35Z</time>
      </trkpt>
      <trkpt lat="46.02861" lon="5.70364">
        <ele>1152.28</ele>
        <time>2023-05-08T09:25:53Z</time>
      </trkpt>
      <trkpt lat="46.02883" lon="5.7038">
        <ele>1151.8</ele>
        <time>2023-05-08T09:26:10Z</time>
      </trkpt>
      <trkpt lat="46.02901" lon="5.704">
        <ele>1149.39</ele>
        <time>2023-05-08T09:26:28Z</time>
      </trkpt>
      <trkpt lat="46.02921" lon="5.70428">
        <ele>1147.47</ele>
        <time>2023-05-08T09:26:47Z</time>
      </trkpt>
      <trkpt lat="46.02932" lon="5.70456">
        <ele>1142.66</ele>
        <time>2023-05-08T09:27:08Z</time>
      </trkpt>
      <trkpt lat="46.02948" lon="5.70492">
        <ele>1135.94</ele>
        <time>2023-05-08T09:27:29Z</time>
      </trkpt>
      <trkpt lat="46.02976" lon="5.70528">
        <ele>1133.53</ele>
        <time>2023-05-08T09:27:45Z</time>
      </trkpt>
      <trkpt lat="46.02998" lon="5.70556">
        <ele>1136.42</ele>
        <time>2023-05-08T09:28:02Z</time>
      </trkpt>
      <trkpt lat="46.03015" lon="5.70588">
        <ele>1134.97</ele>
        <time>2023-05-08T09:28:19Z</time>
      </trkpt>
      <trkpt lat="46.03032" lon="5.70617">
        <ele>1132.57</ele>
        <time>2023-05-08T09:28:37Z</time>
      </trkpt>
      <trkpt lat="46.03046" lon="5.70652">
        <ele>1130.17</ele>
        <time>2023-05-08T09:28:55Z</time>
      </trkpt>
      <trkpt lat="46.03062" lon="5.70675">
        <ele>1133.53</ele>
        <time>2023-05-08T09:29:07Z</time>
      </trkpt>
      <trkpt lat="46.03071" lon="5.70688">
        <ele>1134.01</ele>
        <time>2023-05-08T09:29:14Z</time>
      </trkpt>
      <trkpt lat="46.03083" lon="5.70714">
        <ele>1130.65</ele>
        <time>2023-05-08T09:29:30Z</time>
      </trkpt>
      <trkpt lat="46.03093" lon="5.70734">
        <ele>1128.73</ele>
        <time>2023-05-08T09:29:41Z</time>
      </trkpt>
      <trkpt lat="46.03099" lon="5.70766">
        <ele>1125.84</ele>
        <time>2023-05-08T09:29:56Z</time>
      </trkpt>
      <trkpt lat="46.03105" lon="5.70775">
        <ele>1123.92</ele>
        <time>2023-05-08T09:30:13Z</time>
      </trkpt>
      <trkpt lat="46.03108" lon="5.70782">
        <ele>1122</ele>
        <time>2023-05-08T09:30:34Z</time>
      </trkpt>
      <trkpt lat="46.03109" lon="5.70783">
        <ele>1122</ele>
        <time>2023-05-08T09:30:35Z</time>
      </trkpt>
      <trkpt lat="46.03138" lon="5.70798">
        <ele>1122</ele>
        <time>2023-05-08T09:30:55Z</time>
      </trkpt>
      <trkpt lat="46.03159" lon="5.7082">
        <ele>1125.36</ele>
        <time>2023-05-08T09:31:13Z</time>
      </trkpt>
      <trkpt lat="46.03179" lon="5.70849">
        <ele>1127.28</ele>
        <time>2023-05-08T09:31:33Z</time>
      </trkpt>
      <trkpt lat="46.03198" lon="5.70879">
        <ele>1131.13</ele>
        <time>2023-05-08T09:31:48Z</time>
      </trkpt>
      <trkpt lat="46.03203" lon="5.70885">
        <ele>1133.53</ele>
        <time>2023-05-08T09:31:52Z</time>
      </trkpt>
      <trkpt lat="46.03216" lon="5.70921">
        <ele>1133.05</ele>
        <time>2023-05-08T09:32:09Z</time>
      </trkpt>
      <trkpt lat="46.03217" lon="5.70926">
        <ele>1133.53</ele>
        <time>2023-05-08T09:32:11Z</time>
      </trkpt>
      <trkpt lat="46.03216" lon="5.70941">
        <ele>1134.01</ele>
        <time>2023-05-08T09:32:16Z</time>
      </trkpt>
      <trkpt lat="46.03205" lon="5.70978">
        <ele>1134.49</ele>
        <time>2023-05-08T09:32:31Z</time>
      </trkpt>
      <trkpt lat="46.03198" lon="5.7101">
        <ele>1134.01</ele>
        <time>2023-05-08T09:32:45Z</time>
      </trkpt>
      <trkpt lat="46.03196" lon="5.71013">
        <ele>1134.01</ele>
        <time>2023-05-08T09:32:47Z</time>
      </trkpt>
      <trkpt lat="46.03194" lon="5.7102">
        <ele>1134.97</ele>
        <time>2023-05-08T09:32:51Z</time>
      </trkpt>
      <trkpt lat="46.03181" lon="5.71046">
        <ele>1134.97</ele>
        <time>2023-05-08T09:33:06Z</time>
      </trkpt>
      <trkpt lat="46.03175" lon="5.71062">
        <ele>1134.49</ele>
        <time>2023-05-08T09:33:14Z</time>
      </trkpt>
      <trkpt lat="46.03166" lon="5.71093">
        <ele>1134.49</ele>
        <time>2023-05-08T09:33:30Z</time>
      </trkpt>
      <trkpt lat="46.03155" lon="5.71127">
        <ele>1135.94</ele>
        <time>2023-05-08T09:33:46Z</time>
      </trkpt>
      <trkpt lat="46.03144" lon="5.7116">
        <ele>1137.86</ele>
        <time>2023-05-08T09:34:02Z</time>
      </trkpt>
      <trkpt lat="46.03134" lon="5.71188">
        <ele>1141.22</ele>
        <time>2023-05-08T09:34:16Z</time>
      </trkpt>
      <trkpt lat="46.03117" lon="5.71218">
        <ele>1149.39</ele>
        <time>2023-05-08T09:34:34Z</time>
      </trkpt>
      <trkpt lat="46.0311" lon="5.71234">
        <ele>1150.84</ele>
        <time>2023-05-08T09:34:42Z</time>
      </trkpt>
      <trkpt lat="46.03091" lon="5.71268">
        <ele>1159.01</ele>
        <time>2023-05-08T09:35:01Z</time>
      </trkpt>
      <trkpt lat="46.03073" lon="5.71303">
        <ele>1165.74</ele>
        <time>2023-05-08T09:35:18Z</time>
      </trkpt>
      <trkpt lat="46.03059" lon="5.71331">
        <ele>1167.18</ele>
        <time>2023-05-08T09:35:31Z</time>
      </trkpt>
      <trkpt lat="46.0305" lon="5.71361">
        <ele>1167.66</ele>
        <time>2023-05-08T09:35:45Z</time>
      </trkpt>
      <trkpt lat="46.03038" lon="5.71385">
        <ele>1166.7</ele>
        <time>2023-05-08T09:35:58Z</time>
      </trkpt>
      <trkpt lat="46.03025" lon="5.71414">
        <ele>1166.22</ele>
        <time>2023-05-08T09:36:13Z</time>
      </trkpt>
      <trkpt lat="46.03017" lon="5.71449">
        <ele>1167.66</ele>
        <time>2023-05-08T09:36:28Z</time>
      </trkpt>
      <trkpt lat="46.03014" lon="5.71479">
        <ele>1171.02</ele>
        <time>2023-05-08T09:36:41Z</time>
      </trkpt>
      <trkpt lat="46.03009" lon="5.71511">
        <ele>1171.5</ele>
        <time>2023-05-08T09:36:56Z</time>
      </trkpt>
      <trkpt lat="46.03004" lon="5.71534">
        <ele>1169.1</ele>
        <time>2023-05-08T09:37:08Z</time>
      </trkpt>
      <trkpt lat="46.03001" lon="5.71553">
        <ele>1167.66</ele>
        <time>2023-05-08T09:37:19Z</time>
      </trkpt>
      <trkpt lat="46.03003" lon="5.71582">
        <ele>1164.77</ele>
        <time>2023-05-08T09:37:32Z</time>
      </trkpt>
      <trkpt lat="46.03003" lon="5.71584">
        <ele>1164.29</ele>
        <time>2023-05-08T09:37:33Z</time>
      </trkpt>
      <trkpt lat="46.03004" lon="5.71587">
        <ele>1164.29</ele>
        <time>2023-05-08T09:37:34Z</time>
      </trkpt>
      <trkpt lat="46.03005" lon="5.71589">
        <ele>1164.29</ele>
        <time>2023-05-08T09:37:35Z</time>
      </trkpt>
      <trkpt lat="46.03006" lon="5.71592">
        <ele>1164.29</ele>
        <time>2023-05-08T09:37:36Z</time>
      </trkpt>
      <trkpt lat="46.03007" lon="5.71595">
        <ele>1164.29</ele>
        <time>2023-05-08T09:37:37Z</time>
      </trkpt>
      <trkpt lat="46.03008" lon="5.71598">
        <ele>1164.29</ele>
        <time>2023-05-08T09:37:38Z</time>
      </trkpt>
      <trkpt lat="46.03009" lon="5.71601">
        <ele>1164.29</ele>
        <time>2023-05-08T09:37:39Z</time>
      </trkpt>
      <trkpt lat="46.03011" lon="5.71603">
        <ele>1164.29</ele>
        <time>2023-05-08T09:37:40Z</time>
      </trkpt>
      <trkpt lat="46.03023" lon="5.71631">
        <ele>1163.33</ele>
        <time>2023-05-08T09:37:53Z</time>
      </trkpt>
      <trkpt lat="46.03038" lon="5.71657">
        <ele>1164.29</ele>
        <time>2023-05-08T09:38:06Z</time>
      </trkpt>
      <trkpt lat="46.03052" lon="5.71687">
        <ele>1165.74</ele>
        <time>2023-05-08T09:38:22Z</time>
      </trkpt>
      <trkpt lat="46.03066" lon="5.71711">
        <ele>1166.7</ele>
        <time>2023-05-08T09:38:36Z</time>
      </trkpt>
      <trkpt lat="46.03067" lon="5.71713">
        <ele>1166.7</ele>
        <time>2023-05-08T09:38:37Z</time>
      </trkpt>
      <trkpt lat="46.03067" lon="5.71715">
        <ele>1166.7</ele>
        <time>2023-05-08T09:38:38Z</time>
      </trkpt>
      <trkpt lat="46.03068" lon="5.71717">
        <ele>1166.7</ele>
        <time>2023-05-08T09:38:39Z</time>
      </trkpt>
      <trkpt lat="46.03078" lon="5.71751">
        <ele>1164.77</ele>
        <time>2023-05-08T09:38:54Z</time>
      </trkpt>
      <trkpt lat="46.03078" lon="5.71753">
        <ele>1165.26</ele>
        <time>2023-05-08T09:38:55Z</time>
      </trkpt>
      <trkpt lat="46.03079" lon="5.71755">
        <ele>1165.26</ele>
        <time>2023-05-08T09:38:56Z</time>
      </trkpt>
      <trkpt lat="46.0308" lon="5.71757">
        <ele>1165.26</ele>
        <time>2023-05-08T09:38:57Z</time>
      </trkpt>
      <trkpt lat="46.03081" lon="5.71759">
        <ele>1164.77</ele>
        <time>2023-05-08T09:38:58Z</time>
      </trkpt>
      <trkpt lat="46.03082" lon="5.7176">
        <ele>1164.77</ele>
        <time>2023-05-08T09:38:59Z</time>
      </trkpt>
      <trkpt lat="46.03102" lon="5.71789">
        <ele>1167.18</ele>
        <time>2023-05-08T09:39:16Z</time>
      </trkpt>
      <trkpt lat="46.03113" lon="5.71828">
        <ele>1168.14</ele>
        <time>2023-05-08T09:39:34Z</time>
      </trkpt>
      <trkpt lat="46.03126" lon="5.71857">
        <ele>1167.66</ele>
        <time>2023-05-08T09:39:50Z</time>
      </trkpt>
      <trkpt lat="46.03127" lon="5.71861">
        <ele>1167.66</ele>
        <time>2023-05-08T09:39:52Z</time>
      </trkpt>
      <trkpt lat="46.03128" lon="5.71863">
        <ele>1167.18</ele>
        <time>2023-05-08T09:39:53Z</time>
      </trkpt>
      <trkpt lat="46.03128" lon="5.71865">
        <ele>1167.18</ele>
        <time>2023-05-08T09:39:54Z</time>
      </trkpt>
      <trkpt lat="46.03129" lon="5.71866">
        <ele>1166.7</ele>
        <time>2023-05-08T09:39:55Z</time>
      </trkpt>
      <trkpt lat="46.0313" lon="5.71868">
        <ele>1166.22</ele>
        <time>2023-05-08T09:39:56Z</time>
      </trkpt>
      <trkpt lat="46.0313" lon="5.71869">
        <ele>1165.74</ele>
        <time>2023-05-08T09:39:57Z</time>
      </trkpt>
      <trkpt lat="46.0314" lon="5.71899">
        <ele>1160.45</ele>
        <time>2023-05-08T09:40:16Z</time>
      </trkpt>
      <trkpt lat="46.03155" lon="5.71934">
        <ele>1159.01</ele>
        <time>2023-05-08T09:40:32Z</time>
      </trkpt>
      <trkpt lat="46.0317" lon="5.71962">
        <ele>1159.97</ele>
        <time>2023-05-08T09:40:47Z</time>
      </trkpt>
      <trkpt lat="46.0318" lon="5.71976">
        <ele>1160.93</ele>
        <time>2023-05-08T09:40:55Z</time>
      </trkpt>
      <trkpt lat="46.03181" lon="5.71978">
        <ele>1160.93</ele>
        <time>2023-05-08T09:40:56Z</time>
      </trkpt>
      <trkpt lat="46.03182" lon="5.71979">
        <ele>1160.93</ele>
        <time>2023-05-08T09:40:57Z</time>
      </trkpt>
      <trkpt lat="46.03184" lon="5.7198">
        <ele>1160.93</ele>
        <time>2023-05-08T09:40:58Z</time>
      </trkpt>
      <trkpt lat="46.03185" lon="5.71982">
        <ele>1161.41</ele>
        <time>2023-05-08T09:40:59Z</time>
      </trkpt>
      <trkpt lat="46.03186" lon="5.71984">
        <ele>1161.41</ele>
        <time>2023-05-08T09:41:00Z</time>
      </trkpt>
      <trkpt lat="46.03187" lon="5.71986">
        <ele>1160.93</ele>
        <time>2023-05-08T09:41:01Z</time>
      </trkpt>
      <trkpt lat="46.03188" lon="5.71987">
        <ele>1161.41</ele>
        <time>2023-05-08T09:41:02Z</time>
      </trkpt>
      <trkpt lat="46.03192" lon="5.71993">
        <ele>1162.37</ele>
        <time>2023-05-08T09:41:07Z</time>
      </trkpt>
      <trkpt lat="46.03193" lon="5.71993">
        <ele>1162.37</ele>
        <time>2023-05-08T09:41:08Z</time>
      </trkpt>
      <trkpt lat="46.03194" lon="5.71994">
        <ele>1162.37</ele>
        <time>2023-05-08T09:41:09Z</time>
      </trkpt>
      <trkpt lat="46.03196" lon="5.71995">
        <ele>1162.85</ele>
        <time>2023-05-08T09:41:10Z</time>
      </trkpt>
      <trkpt lat="46.03197" lon="5.71997">
        <ele>1163.33</ele>
        <time>2023-05-08T09:41:11Z</time>
      </trkpt>
      <trkpt lat="46.03198" lon="5.71998">
        <ele>1162.85</ele>
        <time>2023-05-08T09:41:12Z</time>
      </trkpt>
      <trkpt lat="46.03199" lon="5.71999">
        <ele>1163.33</ele>
        <time>2023-05-08T09:41:13Z</time>
      </trkpt>
      <trkpt lat="46.0322" lon="5.72016">
        <ele>1163.33</ele>
        <time>2023-05-08T09:41:27Z</time>
      </trkpt>
      <trkpt lat="46.03236" lon="5.72033">
        <ele>1163.33</ele>
        <time>2023-05-08T09:41:39Z</time>
      </trkpt>
      <trkpt lat="46.0325" lon="5.72057">
        <ele>1161.89</ele>
        <time>2023-05-08T09:41:54Z</time>
      </trkpt>
      <trkpt lat="46.03251" lon="5.72073">
        <ele>1161.41</ele>
        <time>2023-05-08T09:42:01Z</time>
      </trkpt>
      <trkpt lat="46.03251" lon="5.72075">
        <ele>1161.41</ele>
        <time>2023-05-08T09:42:02Z</time>
      </trkpt>
      <trkpt lat="46.03251" lon="5.72078">
        <ele>1161.41</ele>
        <time>2023-05-08T09:42:03Z</time>
      </trkpt>
      <trkpt lat="46.03252" lon="5.7208">
        <ele>1161.41</ele>
        <time>2023-05-08T09:42:04Z</time>
      </trkpt>
      <trkpt lat="46.03252" lon="5.72083">
        <ele>1161.41</ele>
        <time>2023-05-08T09:42:05Z</time>
      </trkpt>
      <trkpt lat="46.03252" lon="5.72085">
        <ele>1161.89</ele>
        <time>2023-05-08T09:42:06Z</time>
      </trkpt>
      <trkpt lat="46.03252" lon="5.72087">
        <ele>1161.89</ele>
        <time>2023-05-08T09:42:07Z</time>
      </trkpt>
      <trkpt lat="46.03252" lon="5.7209">
        <ele>1161.89</ele>
        <time>2023-05-08T09:42:08Z</time>
      </trkpt>
      <trkpt lat="46.03253" lon="5.72092">
        <ele>1162.37</ele>
        <time>2023-05-08T09:42:09Z</time>
      </trkpt>
      <trkpt lat="46.03255" lon="5.72095">
        <ele>1162.37</ele>
        <time>2023-05-08T09:42:11Z</time>
      </trkpt>
      <trkpt lat="46.03256" lon="5.72097">
        <ele>1162.37</ele>
        <time>2023-05-08T09:42:12Z</time>
      </trkpt>
      <trkpt lat="46.03257" lon="5.72099">
        <ele>1162.37</ele>
        <time>2023-05-08T09:42:13Z</time>
      </trkpt>
      <trkpt lat="46.03258" lon="5.72101">
        <ele>1162.37</ele>
        <time>2023-05-08T09:42:14Z</time>
      </trkpt>
      <trkpt lat="46.03259" lon="5.72103">
        <ele>1162.37</ele>
        <time>2023-05-08T09:42:15Z</time>
      </trkpt>
      <trkpt lat="46.03259" lon="5.72105">
        <ele>1162.37</ele>
        <time>2023-05-08T09:42:16Z</time>
      </trkpt>
      <trkpt lat="46.0326" lon="5.72107">
        <ele>1162.37</ele>
        <time>2023-05-08T09:42:17Z</time>
      </trkpt>
      <trkpt lat="46.03261" lon="5.72109">
        <ele>1162.37</ele>
        <time>2023-05-08T09:42:18Z</time>
      </trkpt>
      <trkpt lat="46.03262" lon="5.72111">
        <ele>1162.37</ele>
        <time>2023-05-08T09:42:19Z</time>
      </trkpt>
      <trkpt lat="46.03263" lon="5.72113">
        <ele>1162.37</ele>
        <time>2023-05-08T09:42:20Z</time>
      </trkpt>
      <trkpt lat="46.03264" lon="5.72114">
        <ele>1162.85</ele>
        <time>2023-05-08T09:42:21Z</time>
      </trkpt>
      <trkpt lat="46.03265" lon="5.72116">
        <ele>1162.85</ele>
        <time>2023-05-08T09:42:22Z</time>
      </trkpt>
      <trkpt lat="46.03266" lon="5.72118">
        <ele>1162.85</ele>
        <time>2023-05-08T09:42:23Z</time>
      </trkpt>
      <trkpt lat="46.03267" lon="5.7212">
        <ele>1162.85</ele>
        <time>2023-05-08T09:42:24Z</time>
      </trkpt>
      <trkpt lat="46.03289" lon="5.72145">
        <ele>1162.85</ele>
        <time>2023-05-08T09:42:42Z</time>
      </trkpt>
      <trkpt lat="46.03303" lon="5.72168">
        <ele>1163.81</ele>
        <time>2023-05-08T09:42:57Z</time>
      </trkpt>
      <trkpt lat="46.03321" lon="5.72187">
        <ele>1166.7</ele>
        <time>2023-05-08T09:43:12Z</time>
      </trkpt>
      <trkpt lat="46.03338" lon="5.722">
        <ele>1169.58</ele>
        <time>2023-05-08T09:43:25Z</time>
      </trkpt>
      <trkpt lat="46.03339" lon="5.72201">
        <ele>1169.58</ele>
        <time>2023-05-08T09:43:26Z</time>
      </trkpt>
      <trkpt lat="46.03356" lon="5.72217">
        <ele>1169.1</ele>
        <time>2023-05-08T09:43:40Z</time>
      </trkpt>
      <trkpt lat="46.03366" lon="5.72249">
        <ele>1170.54</ele>
        <time>2023-05-08T09:43:56Z</time>
      </trkpt>
      <trkpt lat="46.03376" lon="5.7229">
        <ele>1170.54</ele>
        <time>2023-05-08T09:44:14Z</time>
      </trkpt>
      <trkpt lat="46.03387" lon="5.72321">
        <ele>1169.1</ele>
        <time>2023-05-08T09:44:29Z</time>
      </trkpt>
      <trkpt lat="46.03396" lon="5.72346">
        <ele>1166.7</ele>
        <time>2023-05-08T09:44:43Z</time>
      </trkpt>
      <trkpt lat="46.03408" lon="5.72362">
        <ele>1166.22</ele>
        <time>2023-05-08T09:44:56Z</time>
      </trkpt>
      <trkpt lat="46.03435" lon="5.72345">
        <ele>1165.74</ele>
        <time>2023-05-08T09:45:12Z</time>
      </trkpt>
      <trkpt lat="46.03452" lon="5.72329">
        <ele>1164.29</ele>
        <time>2023-05-08T09:45:25Z</time>
      </trkpt>
      <trkpt lat="46.03468" lon="5.7232">
        <ele>1162.37</ele>
        <time>2023-05-08T09:45:43Z</time>
      </trkpt>
      <trkpt lat="46.03473" lon="5.72319">
        <ele>1162.37</ele>
        <time>2023-05-08T09:45:47Z</time>
      </trkpt>
      <trkpt lat="46.03495" lon="5.72305">
        <ele>1161.41</ele>
        <time>2023-05-08T09:46:04Z</time>
      </trkpt>
      <trkpt lat="46.03519" lon="5.72289">
        <ele>1161.41</ele>
        <time>2023-05-08T09:46:21Z</time>
      </trkpt>
      <trkpt lat="46.0354" lon="5.72275">
        <ele>1162.85</ele>
        <time>2023-05-08T09:46:39Z</time>
      </trkpt>
      <trkpt lat="46.03558" lon="5.72276">
        <ele>1165.74</ele>
        <time>2023-05-08T09:46:55Z</time>
      </trkpt>
      <trkpt lat="46.0358" lon="5.72281">
        <ele>1165.74</ele>
        <time>2023-05-08T09:47:12Z</time>
      </trkpt>
      <trkpt lat="46.03584" lon="5.72286">
        <ele>1166.22</ele>
        <time>2023-05-08T09:47:17Z</time>
      </trkpt>
      <trkpt lat="46.03585" lon="5.72287">
        <ele>1166.22</ele>
        <time>2023-05-08T09:47:18Z</time>
      </trkpt>
      <trkpt lat="46.03587" lon="5.72288">
        <ele>1166.22</ele>
        <time>2023-05-08T09:47:19Z</time>
      </trkpt>
      <trkpt lat="46.03632" lon="5.72299">
        <ele>1168.14</ele>
        <time>2023-05-08T09:47:34Z</time>
      </trkpt>
      <trkpt lat="46.03651" lon="5.72343">
        <ele>1173.43</ele>
        <time>2023-05-08T09:47:51Z</time>
      </trkpt>
      <trkpt lat="46.03655" lon="5.72348">
        <ele>1176.79</ele>
        <time>2023-05-08T09:48:05Z</time>
      </trkpt>
      <trkpt lat="46.03657" lon="5.7235">
        <ele>1179.19</ele>
        <time>2023-05-08T09:48:26Z</time>
      </trkpt>
      <trkpt lat="46.03657" lon="5.72353">
        <ele>1178.71</ele>
        <time>2023-05-08T09:48:32Z</time>
      </trkpt>
      <trkpt lat="46.03665" lon="5.72393">
        <ele>1179.19</ele>
        <time>2023-05-08T09:48:51Z</time>
      </trkpt>
      <trkpt lat="46.03684" lon="5.72418">
        <ele>1181.6</ele>
        <time>2023-05-08T09:49:09Z</time>
      </trkpt>
      <trkpt lat="46.03709" lon="5.72429">
        <ele>1180.64</ele>
        <time>2023-05-08T09:49:27Z</time>
      </trkpt>
      <trkpt lat="46.03715" lon="5.72433">
        <ele>1181.12</ele>
        <time>2023-05-08T09:49:31Z</time>
      </trkpt>
      <trkpt lat="46.03716" lon="5.72436">
        <ele>1181.6</ele>
        <time>2023-05-08T09:49:32Z</time>
      </trkpt>
      <trkpt lat="46.03717" lon="5.72439">
        <ele>1182.08</ele>
        <time>2023-05-08T09:49:33Z</time>
      </trkpt>
      <trkpt lat="46.03717" lon="5.72442">
        <ele>1182.56</ele>
        <time>2023-05-08T09:49:34Z</time>
      </trkpt>
      <trkpt lat="46.03717" lon="5.72445">
        <ele>1182.56</ele>
        <time>2023-05-08T09:49:35Z</time>
      </trkpt>
      <trkpt lat="46.03715" lon="5.72483">
        <ele>1187.85</ele>
        <time>2023-05-08T09:49:51Z</time>
      </trkpt>
      <trkpt lat="46.03705" lon="5.72522">
        <ele>1193.13</ele>
        <time>2023-05-08T09:50:10Z</time>
      </trkpt>
      <trkpt lat="46.03703" lon="5.7253">
        <ele>1197.46</ele>
        <time>2023-05-08T09:50:22Z</time>
      </trkpt>
      <trkpt lat="46.03697" lon="5.72531">
        <ele>1196.98</ele>
        <time>2023-05-08T09:50:40Z</time>
      </trkpt>
      <trkpt lat="46.03697" lon="5.72531">
        <ele>1196.5</ele>
        <time>2023-05-08T09:50:51Z</time>
      </trkpt>
      <trkpt lat="46.03699" lon="5.72528">
        <ele>1196.5</ele>
        <time>2023-05-08T09:51:00Z</time>
      </trkpt>
      <trkpt lat="46.037" lon="5.72527">
        <ele>1196.02</ele>
        <time>2023-05-08T09:51:01Z</time>
      </trkpt>
      <trkpt lat="46.03702" lon="5.72528">
        <ele>1195.54</ele>
        <time>2023-05-08T09:51:02Z</time>
      </trkpt>
      <trkpt lat="46.03703" lon="5.72528">
        <ele>1195.54</ele>
        <time>2023-05-08T09:51:03Z</time>
      </trkpt>
      <trkpt lat="46.03705" lon="5.72532">
        <ele>1195.06</ele>
        <time>2023-05-08T09:51:15Z</time>
      </trkpt>
      <trkpt lat="46.03705" lon="5.72529">
        <ele>1195.54</ele>
        <time>2023-05-08T09:51:19Z</time>
      </trkpt>
      <trkpt lat="46.03706" lon="5.72527">
        <ele>1195.54</ele>
        <time>2023-05-08T09:51:20Z</time>
      </trkpt>
      <trkpt lat="46.03708" lon="5.72523">
        <ele>1195.54</ele>
        <time>2023-05-08T09:51:22Z</time>
      </trkpt>
      <trkpt lat="46.03709" lon="5.72523">
        <ele>1195.54</ele>
        <time>2023-05-08T09:51:23Z</time>
      </trkpt>
      <trkpt lat="46.03715" lon="5.72523">
        <ele>1195.06</ele>
        <time>2023-05-08T09:51:28Z</time>
      </trkpt>
      <trkpt lat="46.03716" lon="5.72524">
        <ele>1195.06</ele>
        <time>2023-05-08T09:51:29Z</time>
      </trkpt>
      <trkpt lat="46.03719" lon="5.72533">
        <ele>1194.58</ele>
        <time>2023-05-08T09:51:42Z</time>
      </trkpt>
      <trkpt lat="46.03718" lon="5.72541">
        <ele>1197.46</ele>
        <time>2023-05-08T09:52:08Z</time>
      </trkpt>
      <trkpt lat="46.03718" lon="5.72547">
        <ele>1195.54</ele>
        <time>2023-05-08T09:52:45Z</time>
      </trkpt>
      <trkpt lat="46.0372" lon="5.72541">
        <ele>1196.98</ele>
        <time>2023-05-08T09:53:13Z</time>
      </trkpt>
      <trkpt lat="46.03718" lon="5.72524">
        <ele>1194.09</ele>
        <time>2023-05-08T09:53:34Z</time>
      </trkpt>
      <trkpt lat="46.03714" lon="5.72524">
        <ele>1193.13</ele>
        <time>2023-05-08T09:53:39Z</time>
      </trkpt>
      <trkpt lat="46.0371" lon="5.72527">
        <ele>1193.13</ele>
        <time>2023-05-08T09:53:44Z</time>
      </trkpt>
      <trkpt lat="46.03703" lon="5.72532">
        <ele>1194.58</ele>
        <time>2023-05-08T09:53:56Z</time>
      </trkpt>
      <trkpt lat="46.03703" lon="5.72533">
        <ele>1195.54</ele>
        <time>2023-05-08T09:54:15Z</time>
      </trkpt>
      <trkpt lat="46.03699" lon="5.72533">
        <ele>1197.94</ele>
        <time>2023-05-08T09:54:31Z</time>
      </trkpt>
      <trkpt lat="46.03702" lon="5.72534">
        <ele>1196.02</ele>
        <time>2023-05-08T09:54:51Z</time>
      </trkpt>
      <trkpt lat="46.03706" lon="5.72538">
        <ele>1196.5</ele>
        <time>2023-05-08T09:55:22Z</time>
      </trkpt>
      <trkpt lat="46.03704" lon="5.72539">
        <ele>1197.46</ele>
        <time>2023-05-08T09:55:49Z</time>
      </trkpt>
      <trkpt lat="46.03701" lon="5.72535">
        <ele>1197.46</ele>
        <time>2023-05-08T09:56:07Z</time>
      </trkpt>
      <trkpt lat="46.03688" lon="5.72547">
        <ele>1199.86</ele>
        <time>2023-05-08T09:56:22Z</time>
      </trkpt>
      <trkpt lat="46.03687" lon="5.72547">
        <ele>1200.34</ele>
        <time>2023-05-08T09:56:23Z</time>
      </trkpt>
      <trkpt lat="46.03668" lon="5.72551">
        <ele>1205.63</ele>
        <time>2023-05-08T09:56:40Z</time>
      </trkpt>
      <trkpt lat="46.03646" lon="5.7256">
        <ele>1208.51</ele>
        <time>2023-05-08T09:56:55Z</time>
      </trkpt>
      <trkpt lat="46.03634" lon="5.72576">
        <ele>1214.28</ele>
        <time>2023-05-08T09:57:12Z</time>
      </trkpt>
      <trkpt lat="46.0362" lon="5.72595">
        <ele>1220.53</ele>
        <time>2023-05-08T09:57:30Z</time>
      </trkpt>
      <trkpt lat="46.03605" lon="5.7261">
        <ele>1225.34</ele>
        <time>2023-05-08T09:57:46Z</time>
      </trkpt>
      <trkpt lat="46.03597" lon="5.72628">
        <ele>1227.26</ele>
        <time>2023-05-08T09:57:55Z</time>
      </trkpt>
      <trkpt lat="46.03583" lon="5.72656">
        <ele>1223.42</ele>
        <time>2023-05-08T09:58:07Z</time>
      </trkpt>
      <trkpt lat="46.03578" lon="5.72665">
        <ele>1221.49</ele>
        <time>2023-05-08T09:58:10Z</time>
      </trkpt>
      <trkpt lat="46.03576" lon="5.72667">
        <ele>1221.01</ele>
        <time>2023-05-08T09:58:11Z</time>
      </trkpt>
      <trkpt lat="46.03552" lon="5.72698">
        <ele>1218.61</ele>
        <time>2023-05-08T09:58:27Z</time>
      </trkpt>
      <trkpt lat="46.03542" lon="5.72742">
        <ele>1218.13</ele>
        <time>2023-05-08T09:58:43Z</time>
      </trkpt>
      <trkpt lat="46.03547" lon="5.72775">
        <ele>1221.49</ele>
        <time>2023-05-08T09:58:59Z</time>
      </trkpt>
      <trkpt lat="46.03557" lon="5.72794">
        <ele>1225.34</ele>
        <time>2023-05-08T09:59:14Z</time>
      </trkpt>
      <trkpt lat="46.03568" lon="5.72804">
        <ele>1227.74</ele>
        <time>2023-05-08T09:59:25Z</time>
      </trkpt>
      <trkpt lat="46.03584" lon="5.72842">
        <ele>1226.78</ele>
        <time>2023-05-08T09:59:39Z</time>
      </trkpt>
      <trkpt lat="46.03597" lon="5.7287">
        <ele>1225.82</ele>
        <time>2023-05-08T09:59:51Z</time>
      </trkpt>
      <trkpt lat="46.03614" lon="5.72895">
        <ele>1227.26</ele>
        <time>2023-05-08T10:00:08Z</time>
      </trkpt>
      <trkpt lat="46.03633" lon="5.72904">
        <ele>1229.66</ele>
        <time>2023-05-08T10:00:23Z</time>
      </trkpt>
      <trkpt lat="46.03654" lon="5.72911">
        <ele>1232.07</ele>
        <time>2023-05-08T10:00:38Z</time>
      </trkpt>
      <trkpt lat="46.03672" lon="5.7293">
        <ele>1233.99</ele>
        <time>2023-05-08T10:00:53Z</time>
      </trkpt>
      <trkpt lat="46.03685" lon="5.72939">
        <ele>1234.47</ele>
        <time>2023-05-08T10:01:02Z</time>
      </trkpt>
      <trkpt lat="46.03692" lon="5.72937">
        <ele>1234.95</ele>
        <time>2023-05-08T10:01:06Z</time>
      </trkpt>
      <trkpt lat="46.03718" lon="5.72918">
        <ele>1235.91</ele>
        <time>2023-05-08T10:01:25Z</time>
      </trkpt>
      <trkpt lat="46.03741" lon="5.72908">
        <ele>1235.43</ele>
        <time>2023-05-08T10:01:42Z</time>
      </trkpt>
      <trkpt lat="46.0376" lon="5.72903">
        <ele>1235.91</ele>
        <time>2023-05-08T10:01:57Z</time>
      </trkpt>
      <trkpt lat="46.03792" lon="5.72892">
        <ele>1235.91</ele>
        <time>2023-05-08T10:02:14Z</time>
      </trkpt>
      <trkpt lat="46.0381" lon="5.72867">
        <ele>1233.99</ele>
        <time>2023-05-08T10:02:27Z</time>
      </trkpt>
      <trkpt lat="46.03819" lon="5.72835">
        <ele>1235.91</ele>
        <time>2023-05-08T10:02:44Z</time>
      </trkpt>
      <trkpt lat="46.03823" lon="5.72795">
        <ele>1238.8</ele>
        <time>2023-05-08T10:03:01Z</time>
      </trkpt>
      <trkpt lat="46.03828" lon="5.7276">
        <ele>1238.8</ele>
        <time>2023-05-08T10:03:17Z</time>
      </trkpt>
      <trkpt lat="46.0383" lon="5.72736">
        <ele>1240.24</ele>
        <time>2023-05-08T10:03:29Z</time>
      </trkpt>
      <trkpt lat="46.03842" lon="5.72728">
        <ele>1243.12</ele>
        <time>2023-05-08T10:03:37Z</time>
      </trkpt>
      <trkpt lat="46.03853" lon="5.72737">
        <ele>1244.56</ele>
        <time>2023-05-08T10:03:46Z</time>
      </trkpt>
      <trkpt lat="46.0388" lon="5.72741">
        <ele>1243.12</ele>
        <time>2023-05-08T10:04:03Z</time>
      </trkpt>
      <trkpt lat="46.03902" lon="5.72723">
        <ele>1242.16</ele>
        <time>2023-05-08T10:04:20Z</time>
      </trkpt>
      <trkpt lat="46.0391" lon="5.72719">
        <ele>1242.64</ele>
        <time>2023-05-08T10:04:26Z</time>
      </trkpt>
      <trkpt lat="46.03932" lon="5.72733">
        <ele>1245.53</ele>
        <time>2023-05-08T10:04:45Z</time>
      </trkpt>
      <trkpt lat="46.03957" lon="5.72732">
        <ele>1246.49</ele>
        <time>2023-05-08T10:05:02Z</time>
      </trkpt>
      <trkpt lat="46.03984" lon="5.72727">
        <ele>1244.56</ele>
        <time>2023-05-08T10:05:20Z</time>
      </trkpt>
      <trkpt lat="46.04015" lon="5.7272">
        <ele>1242.16</ele>
        <time>2023-05-08T10:05:40Z</time>
      </trkpt>
      <trkpt lat="46.04028" lon="5.72718">
        <ele>1241.68</ele>
        <time>2023-05-08T10:05:53Z</time>
      </trkpt>
      <trkpt lat="46.04037" lon="5.72731">
        <ele>1241.68</ele>
        <time>2023-05-08T10:06:07Z</time>
      </trkpt>
      <trkpt lat="46.0406" lon="5.7273">
        <ele>1240.24</ele>
        <time>2023-05-08T10:06:22Z</time>
      </trkpt>
      <trkpt lat="46.04084" lon="5.72728">
        <ele>1242.16</ele>
        <time>2023-05-08T10:06:39Z</time>
      </trkpt>
      <trkpt lat="46.04098" lon="5.72724">
        <ele>1244.56</ele>
        <time>2023-05-08T10:06:56Z</time>
      </trkpt>
      <trkpt lat="46.04103" lon="5.72734">
        <ele>1246.97</ele>
        <time>2023-05-08T10:07:10Z</time>
      </trkpt>
      <trkpt lat="46.04115" lon="5.72734">
        <ele>1248.41</ele>
        <time>2023-05-08T10:07:23Z</time>
      </trkpt>
      <trkpt lat="46.04117" lon="5.72737">
        <ele>1248.41</ele>
        <time>2023-05-08T10:07:26Z</time>
      </trkpt>
      <trkpt lat="46.04126" lon="5.72741">
        <ele>1248.41</ele>
        <time>2023-05-08T10:07:40Z</time>
      </trkpt>
      <trkpt lat="46.04129" lon="5.72747">
        <ele>1247.93</ele>
        <time>2023-05-08T10:07:45Z</time>
      </trkpt>
      <trkpt lat="46.04146" lon="5.72765">
        <ele>1245.04</ele>
        <time>2023-05-08T10:08:01Z</time>
      </trkpt>
      <trkpt lat="46.04161" lon="5.72777">
        <ele>1246.97</ele>
        <time>2023-05-08T10:08:18Z</time>
      </trkpt>
      <trkpt lat="46.04173" lon="5.7279">
        <ele>1251.77</ele>
        <time>2023-05-08T10:08:34Z</time>
      </trkpt>
      <trkpt lat="46.04187" lon="5.72806">
        <ele>1254.18</ele>
        <time>2023-05-08T10:08:48Z</time>
      </trkpt>
      <trkpt lat="46.04192" lon="5.7281">
        <ele>1253.7</ele>
        <time>2023-05-08T10:08:53Z</time>
      </trkpt>
      <trkpt lat="46.04198" lon="5.7281">
        <ele>1252.25</ele>
        <time>2023-05-08T10:08:59Z</time>
      </trkpt>
      <trkpt lat="46.04205" lon="5.72808">
        <ele>1251.77</ele>
        <time>2023-05-08T10:09:05Z</time>
      </trkpt>
      <trkpt lat="46.04224" lon="5.72808">
        <ele>1255.14</ele>
        <time>2023-05-08T10:09:21Z</time>
      </trkpt>
      <trkpt lat="46.04239" lon="5.72799">
        <ele>1255.62</ele>
        <time>2023-05-08T10:09:35Z</time>
      </trkpt>
      <trkpt lat="46.04262" lon="5.72789">
        <ele>1255.62</ele>
        <time>2023-05-08T10:09:49Z</time>
      </trkpt>
      <trkpt lat="46.04288" lon="5.7277">
        <ele>1253.22</ele>
        <time>2023-05-08T10:10:06Z</time>
      </trkpt>
      <trkpt lat="46.04316" lon="5.72754">
        <ele>1250.81</ele>
        <time>2023-05-08T10:10:23Z</time>
      </trkpt>
      <trkpt lat="46.04342" lon="5.72739">
        <ele>1248.41</ele>
        <time>2023-05-08T10:10:40Z</time>
      </trkpt>
      <trkpt lat="46.04364" lon="5.72731">
        <ele>1251.29</ele>
        <time>2023-05-08T10:10:55Z</time>
      </trkpt>
      <trkpt lat="46.04367" lon="5.72732">
        <ele>1252.25</ele>
        <time>2023-05-08T10:11:01Z</time>
      </trkpt>
      <trkpt lat="46.04374" lon="5.72729">
        <ele>1252.74</ele>
        <time>2023-05-08T10:11:06Z</time>
      </trkpt>
      <trkpt lat="46.04409" lon="5.72722">
        <ele>1257.06</ele>
        <time>2023-05-08T10:11:28Z</time>
      </trkpt>
      <trkpt lat="46.04432" lon="5.72711">
        <ele>1259.94</ele>
        <time>2023-05-08T10:11:43Z</time>
      </trkpt>
      <trkpt lat="46.04457" lon="5.72696">
        <ele>1264.27</ele>
        <time>2023-05-08T10:12:01Z</time>
      </trkpt>
      <trkpt lat="46.04485" lon="5.72692">
        <ele>1270.04</ele>
        <time>2023-05-08T10:12:19Z</time>
      </trkpt>
      <trkpt lat="46.04502" lon="5.72698">
        <ele>1272.92</ele>
        <time>2023-05-08T10:12:35Z</time>
      </trkpt>
      <trkpt lat="46.04502" lon="5.72702">
        <ele>1271</ele>
        <time>2023-05-08T10:12:57Z</time>
      </trkpt>
      <trkpt lat="46.04501" lon="5.72704">
        <ele>1271.96</ele>
        <time>2023-05-08T10:13:17Z</time>
      </trkpt>
      <trkpt lat="46.04501" lon="5.72707">
        <ele>1270.52</ele>
        <time>2023-05-08T10:13:44Z</time>
      </trkpt>
      <trkpt lat="46.04501" lon="5.72703">
        <ele>1269.56</ele>
        <time>2023-05-08T10:14:10Z</time>
      </trkpt>
      <trkpt lat="46.04502" lon="5.72699">
        <ele>1268.12</ele>
        <time>2023-05-08T10:14:40Z</time>
      </trkpt>
      <trkpt lat="46.04501" lon="5.72697">
        <ele>1267.64</ele>
        <time>2023-05-08T10:14:55Z</time>
      </trkpt>
      <trkpt lat="46.04481" lon="5.72691">
        <ele>1265.23</ele>
        <time>2023-05-08T10:15:14Z</time>
      </trkpt>
      <trkpt lat="46.04478" lon="5.72692">
        <ele>1264.75</ele>
        <time>2023-05-08T10:15:18Z</time>
      </trkpt>
      <trkpt lat="46.04473" lon="5.72693">
        <ele>1264.27</ele>
        <time>2023-05-08T10:15:22Z</time>
      </trkpt>
      <trkpt lat="46.04456" lon="5.72696">
        <ele>1261.87</ele>
        <time>2023-05-08T10:15:38Z</time>
      </trkpt>
      <trkpt lat="46.04454" lon="5.72698">
        <ele>1261.39</ele>
        <time>2023-05-08T10:15:41Z</time>
      </trkpt>
      <trkpt lat="46.04433" lon="5.72712">
        <ele>1257.06</ele>
        <time>2023-05-08T10:15:58Z</time>
      </trkpt>
      <trkpt lat="46.04411" lon="5.72728">
        <ele>1251.29</ele>
        <time>2023-05-08T10:16:14Z</time>
      </trkpt>
      <trkpt lat="46.04388" lon="5.72733">
        <ele>1248.89</ele>
        <time>2023-05-08T10:16:30Z</time>
      </trkpt>
      <trkpt lat="46.04363" lon="5.72737">
        <ele>1244.08</ele>
        <time>2023-05-08T10:16:46Z</time>
      </trkpt>
      <trkpt lat="46.04338" lon="5.72729">
        <ele>1240.24</ele>
        <time>2023-05-08T10:17:02Z</time>
      </trkpt>
      <trkpt lat="46.04326" lon="5.72705">
        <ele>1238.8</ele>
        <time>2023-05-08T10:17:20Z</time>
      </trkpt>
      <trkpt lat="46.04323" lon="5.72684">
        <ele>1235.43</ele>
        <time>2023-05-08T10:17:38Z</time>
      </trkpt>
      <trkpt lat="46.04325" lon="5.72657">
        <ele>1233.03</ele>
        <time>2023-05-08T10:17:56Z</time>
      </trkpt>
      <trkpt lat="46.04328" lon="5.72624">
        <ele>1232.07</ele>
        <time>2023-05-08T10:18:10Z</time>
      </trkpt>
      <trkpt lat="46.04332" lon="5.72585">
        <ele>1233.51</ele>
        <time>2023-05-08T10:18:24Z</time>
      </trkpt>
      <trkpt lat="46.04339" lon="5.72549">
        <ele>1236.87</ele>
        <time>2023-05-08T10:18:40Z</time>
      </trkpt>
      <trkpt lat="46.04343" lon="5.72543">
        <ele>1237.83</ele>
        <time>2023-05-08T10:18:44Z</time>
      </trkpt>
      <trkpt lat="46.04345" lon="5.72541">
        <ele>1237.83</ele>
        <time>2023-05-08T10:18:45Z</time>
      </trkpt>
      <trkpt lat="46.04346" lon="5.72538">
        <ele>1238.32</ele>
        <time>2023-05-08T10:18:46Z</time>
      </trkpt>
      <trkpt lat="46.04361" lon="5.72499">
        <ele>1237.35</ele>
        <time>2023-05-08T10:19:04Z</time>
      </trkpt>
      <trkpt lat="46.04367" lon="5.72477">
        <ele>1234.47</ele>
        <time>2023-05-08T10:19:23Z</time>
      </trkpt>
      <trkpt lat="46.0437" lon="5.72469">
        <ele>1233.99</ele>
        <time>2023-05-08T10:19:31Z</time>
      </trkpt>
      <trkpt lat="46.04371" lon="5.72466">
        <ele>1233.99</ele>
        <time>2023-05-08T10:19:32Z</time>
      </trkpt>
      <trkpt lat="46.04378" lon="5.72446">
        <ele>1229.66</ele>
        <time>2023-05-08T10:19:48Z</time>
      </trkpt>
      <trkpt lat="46.0438" lon="5.72437">
        <ele>1228.22</ele>
        <time>2023-05-08T10:19:53Z</time>
      </trkpt>
      <trkpt lat="46.0438" lon="5.72435">
        <ele>1228.22</ele>
        <time>2023-05-08T10:19:54Z</time>
      </trkpt>
      <trkpt lat="46.0438" lon="5.72433">
        <ele>1227.26</ele>
        <time>2023-05-08T10:19:55Z</time>
      </trkpt>
      <trkpt lat="46.04381" lon="5.72431">
        <ele>1226.78</ele>
        <time>2023-05-08T10:19:56Z</time>
      </trkpt>
      <trkpt lat="46.04382" lon="5.72416">
        <ele>1222.93</ele>
        <time>2023-05-08T10:20:05Z</time>
      </trkpt>
      <trkpt lat="46.04377" lon="5.72392">
        <ele>1221.01</ele>
        <time>2023-05-08T10:20:17Z</time>
      </trkpt>
      <trkpt lat="46.04358" lon="5.72371">
        <ele>1218.61</ele>
        <time>2023-05-08T10:20:32Z</time>
      </trkpt>
      <trkpt lat="46.04337" lon="5.72335">
        <ele>1212.84</ele>
        <time>2023-05-08T10:20:50Z</time>
      </trkpt>
      <trkpt lat="46.04321" lon="5.72301">
        <ele>1208.03</ele>
        <time>2023-05-08T10:21:08Z</time>
      </trkpt>
      <trkpt lat="46.04315" lon="5.72288">
        <ele>1206.11</ele>
        <time>2023-05-08T10:21:16Z</time>
      </trkpt>
      <trkpt lat="46.04309" lon="5.72276">
        <ele>1204.19</ele>
        <time>2023-05-08T10:21:32Z</time>
      </trkpt>
      <trkpt lat="46.04309" lon="5.72274">
        <ele>1204.19</ele>
        <time>2023-05-08T10:21:33Z</time>
      </trkpt>
      <trkpt lat="46.0431" lon="5.72242">
        <ele>1204.67</ele>
        <time>2023-05-08T10:21:50Z</time>
      </trkpt>
      <trkpt lat="46.04314" lon="5.72207">
        <ele>1201.3</ele>
        <time>2023-05-08T10:22:04Z</time>
      </trkpt>
      <trkpt lat="46.04305" lon="5.72172">
        <ele>1198.42</ele>
        <time>2023-05-08T10:22:18Z</time>
      </trkpt>
      <trkpt lat="46.04291" lon="5.7214">
        <ele>1197.94</ele>
        <time>2023-05-08T10:22:34Z</time>
      </trkpt>
      <trkpt lat="46.04289" lon="5.72127">
        <ele>1197.46</ele>
        <time>2023-05-08T10:22:48Z</time>
      </trkpt>
      <trkpt lat="46.04284" lon="5.721">
        <ele>1197.46</ele>
        <time>2023-05-08T10:23:02Z</time>
      </trkpt>
      <trkpt lat="46.04293" lon="5.72068">
        <ele>1195.06</ele>
        <time>2023-05-08T10:23:18Z</time>
      </trkpt>
      <trkpt lat="46.04299" lon="5.72031">
        <ele>1191.69</ele>
        <time>2023-05-08T10:23:34Z</time>
      </trkpt>
      <trkpt lat="46.04301" lon="5.71997">
        <ele>1187.85</ele>
        <time>2023-05-08T10:23:49Z</time>
      </trkpt>
      <trkpt lat="46.04301" lon="5.71966">
        <ele>1186.88</ele>
        <time>2023-05-08T10:24:03Z</time>
      </trkpt>
      <trkpt lat="46.04308" lon="5.71937">
        <ele>1185.92</ele>
        <time>2023-05-08T10:24:17Z</time>
      </trkpt>
      <trkpt lat="46.0432" lon="5.719">
        <ele>1183.04</ele>
        <time>2023-05-08T10:24:35Z</time>
      </trkpt>
      <trkpt lat="46.04337" lon="5.71865">
        <ele>1178.23</ele>
        <time>2023-05-08T10:24:53Z</time>
      </trkpt>
      <trkpt lat="46.04352" lon="5.71846">
        <ele>1174.87</ele>
        <time>2023-05-08T10:25:05Z</time>
      </trkpt>
      <trkpt lat="46.04375" lon="5.71825">
        <ele>1176.79</ele>
        <time>2023-05-08T10:25:20Z</time>
      </trkpt>
      <trkpt lat="46.04388" lon="5.71805">
        <ele>1174.87</ele>
        <time>2023-05-08T10:25:35Z</time>
      </trkpt>
      <trkpt lat="46.04406" lon="5.71779">
        <ele>1172.95</ele>
        <time>2023-05-08T10:25:52Z</time>
      </trkpt>
      <trkpt lat="46.04425" lon="5.71751">
        <ele>1172.47</ele>
        <time>2023-05-08T10:26:09Z</time>
      </trkpt>
      <trkpt lat="46.04426" lon="5.71745">
        <ele>1172.95</ele>
        <time>2023-05-08T10:26:15Z</time>
      </trkpt>
      <trkpt lat="46.0442" lon="5.71742">
        <ele>1171.5</ele>
        <time>2023-05-08T10:26:24Z</time>
      </trkpt>
      <trkpt lat="46.04414" lon="5.71741">
        <ele>1168.62</ele>
        <time>2023-05-08T10:26:38Z</time>
      </trkpt>
      <trkpt lat="46.04407" lon="5.71737">
        <ele>1169.1</ele>
        <time>2023-05-08T10:26:50Z</time>
      </trkpt>
      <trkpt lat="46.04406" lon="5.71731">
        <ele>1169.58</ele>
        <time>2023-05-08T10:26:55Z</time>
      </trkpt>
      <trkpt lat="46.04404" lon="5.71725">
        <ele>1169.1</ele>
        <time>2023-05-08T10:26:58Z</time>
      </trkpt>
      <trkpt lat="46.044" lon="5.71703">
        <ele>1166.22</ele>
        <time>2023-05-08T10:27:10Z</time>
      </trkpt>
      <trkpt lat="46.04399" lon="5.71697">
        <ele>1165.74</ele>
        <time>2023-05-08T10:27:14Z</time>
      </trkpt>
      <trkpt lat="46.04396" lon="5.71693">
        <ele>1164.77</ele>
        <time>2023-05-08T10:27:18Z</time>
      </trkpt>
      <trkpt lat="46.04379" lon="5.71693">
        <ele>1160.45</ele>
        <time>2023-05-08T10:27:34Z</time>
      </trkpt>
      <trkpt lat="46.04378" lon="5.71692">
        <ele>1159.97</ele>
        <time>2023-05-08T10:27:36Z</time>
      </trkpt>
      <trkpt lat="46.04358" lon="5.71683">
        <ele>1156.12</ele>
        <time>2023-05-08T10:27:51Z</time>
      </trkpt>
      <trkpt lat="46.04343" lon="5.71666">
        <ele>1152.28</ele>
        <time>2023-05-08T10:28:04Z</time>
      </trkpt>
      <trkpt lat="46.04344" lon="5.71653">
        <ele>1151.32</ele>
        <time>2023-05-08T10:28:11Z</time>
      </trkpt>
      <trkpt lat="46.0434" lon="5.71644">
        <ele>1150.35</ele>
        <time>2023-05-08T10:28:18Z</time>
      </trkpt>
      <trkpt lat="46.0434" lon="5.71634">
        <ele>1148.91</ele>
        <time>2023-05-08T10:28:23Z</time>
      </trkpt>
      <trkpt lat="46.0432" lon="5.71621">
        <ele>1143.14</ele>
        <time>2023-05-08T10:28:39Z</time>
      </trkpt>
      <trkpt lat="46.04314" lon="5.71599">
        <ele>1142.18</ele>
        <time>2023-05-08T10:28:52Z</time>
      </trkpt>
      <trkpt lat="46.04315" lon="5.71587">
        <ele>1141.7</ele>
        <time>2023-05-08T10:29:00Z</time>
      </trkpt>
      <trkpt lat="46.04314" lon="5.71574">
        <ele>1140.26</ele>
        <time>2023-05-08T10:29:09Z</time>
      </trkpt>
      <trkpt lat="46.04309" lon="5.71563">
        <ele>1138.34</ele>
        <time>2023-05-08T10:29:16Z</time>
      </trkpt>
      <trkpt lat="46.04317" lon="5.71525">
        <ele>1135.94</ele>
        <time>2023-05-08T10:29:33Z</time>
      </trkpt>
      <trkpt lat="46.04317" lon="5.71493">
        <ele>1134.01</ele>
        <time>2023-05-08T10:29:48Z</time>
      </trkpt>
      <trkpt lat="46.04311" lon="5.71461">
        <ele>1130.65</ele>
        <time>2023-05-08T10:30:03Z</time>
      </trkpt>
      <trkpt lat="46.04303" lon="5.71441">
        <ele>1127.76</ele>
        <time>2023-05-08T10:30:17Z</time>
      </trkpt>
      <trkpt lat="46.04303" lon="5.7144">
        <ele>1127.28</ele>
        <time>2023-05-08T10:30:18Z</time>
      </trkpt>
      <trkpt lat="46.04302" lon="5.71419">
        <ele>1121.52</ele>
        <time>2023-05-08T10:30:30Z</time>
      </trkpt>
      <trkpt lat="46.04288" lon="5.71403">
        <ele>1117.19</ele>
        <time>2023-05-08T10:30:43Z</time>
      </trkpt>
      <trkpt lat="46.04279" lon="5.71404">
        <ele>1114.31</ele>
        <time>2023-05-08T10:30:53Z</time>
      </trkpt>
      <trkpt lat="46.04269" lon="5.71396">
        <ele>1111.42</ele>
        <time>2023-05-08T10:31:07Z</time>
      </trkpt>
      <trkpt lat="46.04268" lon="5.71396">
        <ele>1111.42</ele>
        <time>2023-05-08T10:31:08Z</time>
      </trkpt>
      <trkpt lat="46.04259" lon="5.71395">
        <ele>1109.98</ele>
        <time>2023-05-08T10:31:15Z</time>
      </trkpt>
      <trkpt lat="46.04252" lon="5.71402">
        <ele>1109.5</ele>
        <time>2023-05-08T10:31:22Z</time>
      </trkpt>
      <trkpt lat="46.04231" lon="5.71384">
        <ele>1105.65</ele>
        <time>2023-05-08T10:31:36Z</time>
      </trkpt>
      <trkpt lat="46.04212" lon="5.71372">
        <ele>1101.81</ele>
        <time>2023-05-08T10:31:52Z</time>
      </trkpt>
      <trkpt lat="46.04187" lon="5.71366">
        <ele>1097.96</ele>
        <time>2023-05-08T10:32:07Z</time>
      </trkpt>
      <trkpt lat="46.0415" lon="5.71351">
        <ele>1095.56</ele>
        <time>2023-05-08T10:32:28Z</time>
      </trkpt>
      <trkpt lat="46.04138" lon="5.71317">
        <ele>1095.08</ele>
        <time>2023-05-08T10:32:44Z</time>
      </trkpt>
      <trkpt lat="46.04138" lon="5.71312">
        <ele>1095.08</ele>
        <time>2023-05-08T10:32:46Z</time>
      </trkpt>
      <trkpt lat="46.04142" lon="5.71275">
        <ele>1094.12</ele>
        <time>2023-05-08T10:33:02Z</time>
      </trkpt>
      <trkpt lat="46.04146" lon="5.71233">
        <ele>1093.64</ele>
        <time>2023-05-08T10:33:19Z</time>
      </trkpt>
      <trkpt lat="46.04147" lon="5.71186">
        <ele>1091.71</ele>
        <time>2023-05-08T10:33:38Z</time>
      </trkpt>
      <trkpt lat="46.04136" lon="5.71137">
        <ele>1086.91</ele>
        <time>2023-05-08T10:34:00Z</time>
      </trkpt>
      <trkpt lat="46.04119" lon="5.71093">
        <ele>1085.47</ele>
        <time>2023-05-08T10:34:21Z</time>
      </trkpt>
      <trkpt lat="46.04115" lon="5.71047">
        <ele>1081.14</ele>
        <time>2023-05-08T10:34:41Z</time>
      </trkpt>
      <trkpt lat="46.04119" lon="5.71002">
        <ele>1078.74</ele>
        <time>2023-05-08T10:34:59Z</time>
      </trkpt>
      <trkpt lat="46.04122" lon="5.7095">
        <ele>1074.41</ele>
        <time>2023-05-08T10:35:20Z</time>
      </trkpt>
      <trkpt lat="46.04122" lon="5.70909">
        <ele>1070.57</ele>
        <time>2023-05-08T10:35:37Z</time>
      </trkpt>
      <trkpt lat="46.0412" lon="5.70866">
        <ele>1066.72</ele>
        <time>2023-05-08T10:35:55Z</time>
      </trkpt>
      <trkpt lat="46.04115" lon="5.70823">
        <ele>1065.28</ele>
        <time>2023-05-08T10:36:13Z</time>
      </trkpt>
      <trkpt lat="46.04113" lon="5.70778">
        <ele>1061.91</ele>
        <time>2023-05-08T10:36:32Z</time>
      </trkpt>
      <trkpt lat="46.04109" lon="5.70752">
        <ele>1059.03</ele>
        <time>2023-05-08T10:36:44Z</time>
      </trkpt>
      <trkpt lat="46.04108" lon="5.7075">
        <ele>1058.55</ele>
        <time>2023-05-08T10:36:45Z</time>
      </trkpt>
      <trkpt lat="46.04096" lon="5.7071">
        <ele>1054.22</ele>
        <time>2023-05-08T10:37:04Z</time>
      </trkpt>
      <trkpt lat="46.04085" lon="5.70674">
        <ele>1051.82</ele>
        <time>2023-05-08T10:37:21Z</time>
      </trkpt>
      <trkpt lat="46.04074" lon="5.70642">
        <ele>1051.34</ele>
        <time>2023-05-08T10:37:37Z</time>
      </trkpt>
      <trkpt lat="46.04061" lon="5.70606">
        <ele>1049.42</ele>
        <time>2023-05-08T10:37:52Z</time>
      </trkpt>
      <trkpt lat="46.04044" lon="5.70578">
        <ele>1048.94</ele>
        <time>2023-05-08T10:38:10Z</time>
      </trkpt>
      <trkpt lat="46.04048" lon="5.70571">
        <ele>1049.42</ele>
        <time>2023-05-08T10:38:23Z</time>
      </trkpt>
      <trkpt lat="46.04048" lon="5.70568">
        <ele>1049.9</ele>
        <time>2023-05-08T10:38:51Z</time>
      </trkpt>
      <trkpt lat="46.04049" lon="5.7057">
        <ele>1048.94</ele>
        <time>2023-05-08T10:39:17Z</time>
      </trkpt>
      <trkpt lat="46.04047" lon="5.70569">
        <ele>1049.9</ele>
        <time>2023-05-08T10:39:37Z</time>
      </trkpt>
      <trkpt lat="46.04047" lon="5.70566">
        <ele>1049.9</ele>
        <time>2023-05-08T10:39:57Z</time>
      </trkpt>
      <trkpt lat="46.04048" lon="5.70563">
        <ele>1051.82</ele>
        <time>2023-05-08T10:40:31Z</time>
      </trkpt>
      <trkpt lat="46.04048" lon="5.70565">
        <ele>1053.74</ele>
        <time>2023-05-08T10:41:03Z</time>
      </trkpt>
      <trkpt lat="46.0405" lon="5.70562">
        <ele>1051.82</ele>
        <time>2023-05-08T10:41:33Z</time>
      </trkpt>
      <trkpt lat="46.0405" lon="5.70559">
        <ele>1053.26</ele>
        <time>2023-05-08T10:42:04Z</time>
      </trkpt>
      <trkpt lat="46.04053" lon="5.70562">
        <ele>1051.82</ele>
        <time>2023-05-08T10:42:30Z</time>
      </trkpt>
      <trkpt lat="46.04054" lon="5.70565">
        <ele>1050.38</ele>
        <time>2023-05-08T10:42:48Z</time>
      </trkpt>
      <trkpt lat="46.04055" lon="5.70566">
        <ele>1049.9</ele>
        <time>2023-05-08T10:43:08Z</time>
      </trkpt>
      <trkpt lat="46.04056" lon="5.70567">
        <ele>1048.45</ele>
        <time>2023-05-08T10:43:22Z</time>
      </trkpt>
      <trkpt lat="46.04057" lon="5.70562">
        <ele>1047.01</ele>
        <time>2023-05-08T10:43:36Z</time>
      </trkpt>
      <trkpt lat="46.04057" lon="5.70554">
        <ele>1046.53</ele>
        <time>2023-05-08T10:43:48Z</time>
      </trkpt>
      <trkpt lat="46.04054" lon="5.70557">
        <ele>1046.05</ele>
        <time>2023-05-08T10:44:01Z</time>
      </trkpt>
      <trkpt lat="46.04052" lon="5.70557">
        <ele>1044.61</ele>
        <time>2023-05-08T10:44:17Z</time>
      </trkpt>
      <trkpt lat="46.04052" lon="5.70557">
        <ele>1044.61</ele>
        <time>2023-05-08T10:44:34Z</time>
      </trkpt>
      <trkpt lat="46.04051" lon="5.70558">
        <ele>1046.05</ele>
        <time>2023-05-08T10:45:03Z</time>
      </trkpt>
      <trkpt lat="46.0405" lon="5.70558">
        <ele>1045.09</ele>
        <time>2023-05-08T10:45:26Z</time>
      </trkpt>
      <trkpt lat="46.04051" lon="5.70556">
        <ele>1043.17</ele>
        <time>2023-05-08T10:46:02Z</time>
      </trkpt>
      <trkpt lat="46.04051" lon="5.70558">
        <ele>1043.65</ele>
        <time>2023-05-08T10:46:26Z</time>
      </trkpt>
      <trkpt lat="46.04052" lon="5.70558">
        <ele>1045.57</ele>
        <time>2023-05-08T10:46:49Z</time>
      </trkpt>
      <trkpt lat="46.04057" lon="5.70551">
        <ele>1045.57</ele>
        <time>2023-05-08T10:47:02Z</time>
      </trkpt>
      <trkpt lat="46.04055" lon="5.70551">
        <ele>1046.05</ele>
        <time>2023-05-08T10:47:18Z</time>
      </trkpt>
      <trkpt lat="46.04052" lon="5.70553">
        <ele>1045.57</ele>
        <time>2023-05-08T10:47:37Z</time>
      </trkpt>
      <trkpt lat="46.04052" lon="5.70554">
        <ele>1044.13</ele>
        <time>2023-05-08T10:47:56Z</time>
      </trkpt>
      <trkpt lat="46.04052" lon="5.70551">
        <ele>1045.09</ele>
        <time>2023-05-08T10:48:08Z</time>
      </trkpt>
      <trkpt lat="46.04052" lon="5.70554">
        <ele>1045.09</ele>
        <time>2023-05-08T10:48:30Z</time>
      </trkpt>
      <trkpt lat="46.04054" lon="5.70555">
        <ele>1045.09</ele>
        <time>2023-05-08T10:48:45Z</time>
      </trkpt>
      <trkpt lat="46.04048" lon="5.70564">
        <ele>1044.61</ele>
        <time>2023-05-08T10:49:01Z</time>
      </trkpt>
      <trkpt lat="46.04044" lon="5.70563">
        <ele>1045.09</ele>
        <time>2023-05-08T10:49:11Z</time>
      </trkpt>
      <trkpt lat="46.0404" lon="5.7056">
        <ele>1044.13</ele>
        <time>2023-05-08T10:49:25Z</time>
      </trkpt>
      <trkpt lat="46.04041" lon="5.70561">
        <ele>1046.05</ele>
        <time>2023-05-08T10:49:43Z</time>
      </trkpt>
      <trkpt lat="46.04042" lon="5.70561">
        <ele>1047.01</ele>
        <time>2023-05-08T10:49:59Z</time>
      </trkpt>
      <trkpt lat="46.04042" lon="5.70557">
        <ele>1046.05</ele>
        <time>2023-05-08T10:50:15Z</time>
      </trkpt>
      <trkpt lat="46.04043" lon="5.70554">
        <ele>1044.61</ele>
        <time>2023-05-08T10:50:39Z</time>
      </trkpt>
      <trkpt lat="46.04031" lon="5.70551">
        <ele>1043.65</ele>
        <time>2023-05-08T10:50:51Z</time>
      </trkpt>
      <trkpt lat="46.04012" lon="5.70523">
        <ele>1043.17</ele>
        <time>2023-05-08T10:51:09Z</time>
      </trkpt>
      <trkpt lat="46.03987" lon="5.70476">
        <ele>1042.21</ele>
        <time>2023-05-08T10:51:35Z</time>
      </trkpt>
      <trkpt lat="46.03978" lon="5.70423">
        <ele>1040.76</ele>
        <time>2023-05-08T10:51:59Z</time>
      </trkpt>
      <trkpt lat="46.03974" lon="5.70372">
        <ele>1040.28</ele>
        <time>2023-05-08T10:52:22Z</time>
      </trkpt>
      <trkpt lat="46.0396" lon="5.70332">
        <ele>1039.32</ele>
        <time>2023-05-08T10:52:43Z</time>
      </trkpt>
      <trkpt lat="46.03933" lon="5.7032">
        <ele>1039.8</ele>
        <time>2023-05-08T10:53:01Z</time>
      </trkpt>
      <trkpt lat="46.03895" lon="5.70306">
        <ele>1042.21</ele>
        <time>2023-05-08T10:53:24Z</time>
      </trkpt>
      <trkpt lat="46.03876" lon="5.70302">
        <ele>1042.69</ele>
        <time>2023-05-08T10:53:28Z</time>
      </trkpt>
      <trkpt lat="46.03812" lon="5.703">
        <ele>1044.61</ele>
        <time>2023-05-08T10:53:40Z</time>
      </trkpt>
      <trkpt lat="46.03807" lon="5.70301">
        <ele>1044.61</ele>
        <time>2023-05-08T10:53:41Z</time>
      </trkpt>
      <trkpt lat="46.03792" lon="5.70307">
        <ele>1045.09</ele>
        <time>2023-05-08T10:53:44Z</time>
      </trkpt>
      <trkpt lat="46.03765" lon="5.70325">
        <ele>1045.09</ele>
        <time>2023-05-08T10:53:49Z</time>
      </trkpt>
      <trkpt lat="46.0375" lon="5.70332">
        <ele>1045.09</ele>
        <time>2023-05-08T10:53:52Z</time>
      </trkpt>
      <trkpt lat="46.03745" lon="5.70333">
        <ele>1044.61</ele>
        <time>2023-05-08T10:53:53Z</time>
      </trkpt>
      <trkpt lat="46.03698" lon="5.70336">
        <ele>1043.65</ele>
        <time>2023-05-08T10:54:02Z</time>
      </trkpt>
      <trkpt lat="46.03677" lon="5.70328">
        <ele>1044.61</ele>
        <time>2023-05-08T10:54:06Z</time>
      </trkpt>
      <trkpt lat="46.03645" lon="5.70322">
        <ele>1049.9</ele>
        <time>2023-05-08T10:54:19Z</time>
      </trkpt>
      <trkpt lat="46.03635" lon="5.70317">
        <ele>1053.26</ele>
        <time>2023-05-08T10:54:31Z</time>
      </trkpt>
      <trkpt lat="46.0363" lon="5.70316">
        <ele>1054.7</ele>
        <time>2023-05-08T10:54:35Z</time>
      </trkpt>
      <trkpt lat="46.03628" lon="5.70316">
        <ele>1054.7</ele>
        <time>2023-05-08T10:54:36Z</time>
      </trkpt>
      <trkpt lat="46.03626" lon="5.70317">
        <ele>1054.7</ele>
        <time>2023-05-08T10:54:37Z</time>
      </trkpt>
      <trkpt lat="46.03601" lon="5.70315">
        <ele>1058.55</ele>
        <time>2023-05-08T10:54:54Z</time>
      </trkpt>
      <trkpt lat="46.03575" lon="5.70335">
        <ele>1060.95</ele>
        <time>2023-05-08T10:55:13Z</time>
      </trkpt>
      <trkpt lat="46.03557" lon="5.7037">
        <ele>1063.36</ele>
        <time>2023-05-08T10:55:34Z</time>
      </trkpt>
      <trkpt lat="46.03539" lon="5.70407">
        <ele>1063.36</ele>
        <time>2023-05-08T10:55:54Z</time>
      </trkpt>
      <trkpt lat="46.03507" lon="5.70423">
        <ele>1066.24</ele>
        <time>2023-05-08T10:56:14Z</time>
      </trkpt>
      <trkpt lat="46.03486" lon="5.70448">
        <ele>1068.64</ele>
        <time>2023-05-08T10:56:32Z</time>
      </trkpt>
      <trkpt lat="46.03461" lon="5.70437">
        <ele>1070.08</ele>
        <time>2023-05-08T10:56:47Z</time>
      </trkpt>
      <trkpt lat="46.03432" lon="5.70448">
        <ele>1073.45</ele>
        <time>2023-05-08T10:57:05Z</time>
      </trkpt>
      <trkpt lat="46.03401" lon="5.7045">
        <ele>1077.78</ele>
        <time>2023-05-08T10:57:24Z</time>
      </trkpt>
      <trkpt lat="46.03382" lon="5.70463">
        <ele>1082.1</ele>
        <time>2023-05-08T10:57:40Z</time>
      </trkpt>
      <trkpt lat="46.03359" lon="5.70478">
        <ele>1084.5</ele>
        <time>2023-05-08T10:57:57Z</time>
      </trkpt>
      <trkpt lat="46.03335" lon="5.70455">
        <ele>1086.43</ele>
        <time>2023-05-08T10:58:17Z</time>
      </trkpt>
      <trkpt lat="46.0332" lon="5.70428">
        <ele>1090.27</ele>
        <time>2023-05-08T10:58:33Z</time>
      </trkpt>
      <trkpt lat="46.03292" lon="5.70405">
        <ele>1091.23</ele>
        <time>2023-05-08T10:58:53Z</time>
      </trkpt>
      <trkpt lat="46.03269" lon="5.70391">
        <ele>1092.2</ele>
        <time>2023-05-08T10:59:10Z</time>
      </trkpt>
      <trkpt lat="46.03242" lon="5.70372">
        <ele>1090.75</ele>
        <time>2023-05-08T10:59:29Z</time>
      </trkpt>
      <trkpt lat="46.0322" lon="5.70351">
        <ele>1091.23</ele>
        <time>2023-05-08T10:59:46Z</time>
      </trkpt>
      <trkpt lat="46.03196" lon="5.70328">
        <ele>1088.83</ele>
        <time>2023-05-08T11:00:05Z</time>
      </trkpt>
      <trkpt lat="46.03182" lon="5.70301">
        <ele>1088.35</ele>
        <time>2023-05-08T11:00:19Z</time>
      </trkpt>
      <trkpt lat="46.03166" lon="5.70267">
        <ele>1089.79</ele>
        <time>2023-05-08T11:00:35Z</time>
      </trkpt>
      <trkpt lat="46.03145" lon="5.70232">
        <ele>1088.35</ele>
        <time>2023-05-08T11:00:55Z</time>
      </trkpt>
      <trkpt lat="46.03123" lon="5.70207">
        <ele>1090.27</ele>
        <time>2023-05-08T11:01:12Z</time>
      </trkpt>
      <trkpt lat="46.03101" lon="5.70184">
        <ele>1092.2</ele>
        <time>2023-05-08T11:01:29Z</time>
      </trkpt>
      <trkpt lat="46.03085" lon="5.70154">
        <ele>1092.68</ele>
        <time>2023-05-08T11:01:45Z</time>
      </trkpt>
      <trkpt lat="46.03068" lon="5.70118">
        <ele>1094.6</ele>
        <time>2023-05-08T11:02:03Z</time>
      </trkpt>
      <trkpt lat="46.03054" lon="5.7009">
        <ele>1096.52</ele>
        <time>2023-05-08T11:02:19Z</time>
      </trkpt>
      <trkpt lat="46.03041" lon="5.70057">
        <ele>1097.48</ele>
        <time>2023-05-08T11:02:37Z</time>
      </trkpt>
      <trkpt lat="46.03025" lon="5.70025">
        <ele>1103.25</ele>
        <time>2023-05-08T11:02:55Z</time>
      </trkpt>
      <trkpt lat="46.03005" lon="5.69994">
        <ele>1103.25</ele>
        <time>2023-05-08T11:03:11Z</time>
      </trkpt>
      <trkpt lat="46.02976" lon="5.69963">
        <ele>1104.21</ele>
        <time>2023-05-08T11:03:21Z</time>
      </trkpt>
      <trkpt lat="46.02941" lon="5.69924">
        <ele>1105.65</ele>
        <time>2023-05-08T11:03:29Z</time>
      </trkpt>
      <trkpt lat="46.02931" lon="5.69905">
        <ele>1105.65</ele>
        <time>2023-05-08T11:03:32Z</time>
      </trkpt>
      <trkpt lat="46.02928" lon="5.699">
        <ele>1106.13</ele>
        <time>2023-05-08T11:03:33Z</time>
      </trkpt>
      <trkpt lat="46.02914" lon="5.69882">
        <ele>1108.06</ele>
        <time>2023-05-08T11:03:40Z</time>
      </trkpt>
      <trkpt lat="46.02912" lon="5.69882">
        <ele>1108.06</ele>
        <time>2023-05-08T11:03:41Z</time>
      </trkpt>
      <trkpt lat="46.02911" lon="5.69881">
        <ele>1108.54</ele>
        <time>2023-05-08T11:03:42Z</time>
      </trkpt>
      <trkpt lat="46.0291" lon="5.69881">
        <ele>1108.54</ele>
        <time>2023-05-08T11:03:43Z</time>
      </trkpt>
      <trkpt lat="46.02908" lon="5.6988">
        <ele>1109.02</ele>
        <time>2023-05-08T11:03:44Z</time>
      </trkpt>
      <trkpt lat="46.02907" lon="5.6988">
        <ele>1109.5</ele>
        <time>2023-05-08T11:03:45Z</time>
      </trkpt>
      <trkpt lat="46.02905" lon="5.69879">
        <ele>1109.98</ele>
        <time>2023-05-08T11:03:46Z</time>
      </trkpt>
      <trkpt lat="46.02885" lon="5.69863">
        <ele>1114.31</ele>
        <time>2023-05-08T11:04:03Z</time>
      </trkpt>
      <trkpt lat="46.02875" lon="5.69852">
        <ele>1114.79</ele>
        <time>2023-05-08T11:04:12Z</time>
      </trkpt>
      <trkpt lat="46.02856" lon="5.69816">
        <ele>1115.27</ele>
        <time>2023-05-08T11:04:29Z</time>
      </trkpt>
      <trkpt lat="46.02842" lon="5.6978">
        <ele>1113.34</ele>
        <time>2023-05-08T11:04:44Z</time>
      </trkpt>
      <trkpt lat="46.02827" lon="5.69745">
        <ele>1110.46</ele>
        <time>2023-05-08T11:05:01Z</time>
      </trkpt>
      <trkpt lat="46.02808" lon="5.69714">
        <ele>1106.13</ele>
        <time>2023-05-08T11:05:17Z</time>
      </trkpt>
      <trkpt lat="46.02788" lon="5.69681">
        <ele>1108.06</ele>
        <time>2023-05-08T11:05:34Z</time>
      </trkpt>
      <trkpt lat="46.02767" lon="5.69656">
        <ele>1109.02</ele>
        <time>2023-05-08T11:05:48Z</time>
      </trkpt>
      <trkpt lat="46.02739" lon="5.69643">
        <ele>1109.5</ele>
        <time>2023-05-08T11:06:04Z</time>
      </trkpt>
      <trkpt lat="46.0271" lon="5.69634">
        <ele>1110.46</ele>
        <time>2023-05-08T11:06:20Z</time>
      </trkpt>
      <trkpt lat="46.02685" lon="5.69621">
        <ele>1113.34</ele>
        <time>2023-05-08T11:06:37Z</time>
      </trkpt>
      <trkpt lat="46.0266" lon="5.69625">
        <ele>1113.82</ele>
        <time>2023-05-08T11:06:53Z</time>
      </trkpt>
      <trkpt lat="46.02636" lon="5.69628">
        <ele>1112.86</ele>
        <time>2023-05-08T11:07:08Z</time>
      </trkpt>
      <trkpt lat="46.02614" lon="5.69605">
        <ele>1109.5</ele>
        <time>2023-05-08T11:07:23Z</time>
      </trkpt>
      <trkpt lat="46.02594" lon="5.69593">
        <ele>1105.17</ele>
        <time>2023-05-08T11:07:38Z</time>
      </trkpt>
      <trkpt lat="46.02568" lon="5.69578">
        <ele>1101.33</ele>
        <time>2023-05-08T11:07:55Z</time>
      </trkpt>
      <trkpt lat="46.02545" lon="5.69565">
        <ele>1099.4</ele>
        <time>2023-05-08T11:08:11Z</time>
      </trkpt>
      <trkpt lat="46.02524" lon="5.69555">
        <ele>1095.56</ele>
        <time>2023-05-08T11:08:25Z</time>
      </trkpt>
      <trkpt lat="46.02503" lon="5.69545">
        <ele>1090.27</ele>
        <time>2023-05-08T11:08:40Z</time>
      </trkpt>
      <trkpt lat="46.02479" lon="5.69532">
        <ele>1084.5</ele>
        <time>2023-05-08T11:08:55Z</time>
      </trkpt>
      <trkpt lat="46.02452" lon="5.69521">
        <ele>1080.18</ele>
        <time>2023-05-08T11:09:14Z</time>
      </trkpt>
      <trkpt lat="46.02429" lon="5.6951">
        <ele>1078.74</ele>
        <time>2023-05-08T11:09:30Z</time>
      </trkpt>
      <trkpt lat="46.02405" lon="5.69496">
        <ele>1074.89</ele>
        <time>2023-05-08T11:09:48Z</time>
      </trkpt>
      <trkpt lat="46.0238" lon="5.69489">
        <ele>1071.05</ele>
        <time>2023-05-08T11:10:05Z</time>
      </trkpt>
      <trkpt lat="46.02369" lon="5.69485">
        <ele>1070.08</ele>
        <time>2023-05-08T11:10:13Z</time>
      </trkpt>
      <trkpt lat="46.02368" lon="5.69484">
        <ele>1069.6</ele>
        <time>2023-05-08T11:10:14Z</time>
      </trkpt>
      <trkpt lat="46.02366" lon="5.69483">
        <ele>1069.6</ele>
        <time>2023-05-08T11:10:15Z</time>
      </trkpt>
      <trkpt lat="46.02343" lon="5.69469">
        <ele>1066.72</ele>
        <time>2023-05-08T11:10:29Z</time>
      </trkpt>
      <trkpt lat="46.0232" lon="5.69466">
        <ele>1062.39</ele>
        <time>2023-05-08T11:10:45Z</time>
      </trkpt>
      <trkpt lat="46.02307" lon="5.69487">
        <ele>1060.47</ele>
        <time>2023-05-08T11:10:59Z</time>
      </trkpt>
      <trkpt lat="46.0229" lon="5.69521">
        <ele>1062.39</ele>
        <time>2023-05-08T11:11:17Z</time>
      </trkpt>
      <trkpt lat="46.0228" lon="5.69542">
        <ele>1063.36</ele>
        <time>2023-05-08T11:11:29Z</time>
      </trkpt>
      <trkpt lat="46.02279" lon="5.69543">
        <ele>1063.36</ele>
        <time>2023-05-08T11:11:30Z</time>
      </trkpt>
      <trkpt lat="46.02277" lon="5.69544">
        <ele>1063.84</ele>
        <time>2023-05-08T11:11:31Z</time>
      </trkpt>
      <trkpt lat="46.02253" lon="5.69545">
        <ele>1065.28</ele>
        <time>2023-05-08T11:11:44Z</time>
      </trkpt>
      <trkpt lat="46.02222" lon="5.69532">
        <ele>1065.76</ele>
        <time>2023-05-08T11:12:03Z</time>
      </trkpt>
      <trkpt lat="46.02194" lon="5.69535">
        <ele>1064.8</ele>
        <time>2023-05-08T11:12:20Z</time>
      </trkpt>
      <trkpt lat="46.02172" lon="5.69515">
        <ele>1063.36</ele>
        <time>2023-05-08T11:12:37Z</time>
      </trkpt>
      <trkpt lat="46.02158" lon="5.69494">
        <ele>1060.95</ele>
        <time>2023-05-08T11:12:51Z</time>
      </trkpt>
      <trkpt lat="46.02143" lon="5.69469">
        <ele>1059.03</ele>
        <time>2023-05-08T11:13:07Z</time>
      </trkpt>
      <trkpt lat="46.0213" lon="5.69441">
        <ele>1058.55</ele>
        <time>2023-05-08T11:13:21Z</time>
      </trkpt>
      <trkpt lat="46.02126" lon="5.69402">
        <ele>1057.59</ele>
        <time>2023-05-08T11:13:36Z</time>
      </trkpt>
      <trkpt lat="46.02125" lon="5.6939">
        <ele>1057.59</ele>
        <time>2023-05-08T11:13:42Z</time>
      </trkpt>
      <trkpt lat="46.02104" lon="5.69376">
        <ele>1059.03</ele>
        <time>2023-05-08T11:13:56Z</time>
      </trkpt>
      <trkpt lat="46.02095" lon="5.69374">
        <ele>1058.07</ele>
        <time>2023-05-08T11:14:05Z</time>
      </trkpt>
      <trkpt lat="46.02091" lon="5.69373">
        <ele>1057.11</ele>
        <time>2023-05-08T11:14:08Z</time>
      </trkpt>
      <trkpt lat="46.02078" lon="5.69377">
        <ele>1055.67</ele>
        <time>2023-05-08T11:14:15Z</time>
      </trkpt>
      <trkpt lat="46.02076" lon="5.69377">
        <ele>1055.67</ele>
        <time>2023-05-08T11:14:16Z</time>
      </trkpt>
      <trkpt lat="46.02074" lon="5.69378">
        <ele>1055.18</ele>
        <time>2023-05-08T11:14:17Z</time>
      </trkpt>
      <trkpt lat="46.02048" lon="5.69386">
        <ele>1056.15</ele>
        <time>2023-05-08T11:14:33Z</time>
      </trkpt>
      <trkpt lat="46.02019" lon="5.69392">
        <ele>1050.86</ele>
        <time>2023-05-08T11:14:50Z</time>
      </trkpt>
      <trkpt lat="46.01996" lon="5.69393">
        <ele>1047.97</ele>
        <time>2023-05-08T11:15:02Z</time>
      </trkpt>
      <trkpt lat="46.0197" lon="5.69385">
        <ele>1045.57</ele>
        <time>2023-05-08T11:15:17Z</time>
      </trkpt>
      <trkpt lat="46.01965" lon="5.6938">
        <ele>1045.09</ele>
        <time>2023-05-08T11:15:21Z</time>
      </trkpt>
      <trkpt lat="46.01964" lon="5.6938">
        <ele>1045.09</ele>
        <time>2023-05-08T11:15:22Z</time>
      </trkpt>
      <trkpt lat="46.01963" lon="5.69381">
        <ele>1045.09</ele>
        <time>2023-05-08T11:15:23Z</time>
      </trkpt>
      <trkpt lat="46.01962" lon="5.69382">
        <ele>1045.09</ele>
        <time>2023-05-08T11:15:24Z</time>
      </trkpt>
      <trkpt lat="46.01961" lon="5.69383">
        <ele>1045.09</ele>
        <time>2023-05-08T11:15:25Z</time>
      </trkpt>
      <trkpt lat="46.01961" lon="5.69385">
        <ele>1045.09</ele>
        <time>2023-05-08T11:15:26Z</time>
      </trkpt>
      <trkpt lat="46.01961" lon="5.69386">
        <ele>1045.09</ele>
        <time>2023-05-08T11:15:27Z</time>
      </trkpt>
      <trkpt lat="46.0196" lon="5.69389">
        <ele>1045.09</ele>
        <time>2023-05-08T11:15:28Z</time>
      </trkpt>
      <trkpt lat="46.0196" lon="5.69391">
        <ele>1045.09</ele>
        <time>2023-05-08T11:15:29Z</time>
      </trkpt>
      <trkpt lat="46.0196" lon="5.69393">
        <ele>1045.57</ele>
        <time>2023-05-08T11:15:30Z</time>
      </trkpt>
      <trkpt lat="46.0194" lon="5.69409">
        <ele>1045.09</ele>
        <time>2023-05-08T11:15:45Z</time>
      </trkpt>
      <trkpt lat="46.01916" lon="5.69422">
        <ele>1046.05</ele>
        <time>2023-05-08T11:15:59Z</time>
      </trkpt>
      <trkpt lat="46.01891" lon="5.69417">
        <ele>1049.9</ele>
        <time>2023-05-08T11:16:14Z</time>
      </trkpt>
      <trkpt lat="46.01873" lon="5.69413">
        <ele>1053.26</ele>
        <time>2023-05-08T11:16:26Z</time>
      </trkpt>
      <trkpt lat="46.0185" lon="5.6939">
        <ele>1053.26</ele>
        <time>2023-05-08T11:16:41Z</time>
      </trkpt>
      <trkpt lat="46.01828" lon="5.69367">
        <ele>1049.42</ele>
        <time>2023-05-08T11:16:56Z</time>
      </trkpt>
      <trkpt lat="46.01807" lon="5.69357">
        <ele>1046.05</ele>
        <time>2023-05-08T11:17:10Z</time>
      </trkpt>
      <trkpt lat="46.01777" lon="5.69347">
        <ele>1046.05</ele>
        <time>2023-05-08T11:17:28Z</time>
      </trkpt>
      <trkpt lat="46.01751" lon="5.6934">
        <ele>1043.65</ele>
        <time>2023-05-08T11:17:44Z</time>
      </trkpt>
      <trkpt lat="46.01726" lon="5.69326">
        <ele>1042.21</ele>
        <time>2023-05-08T11:18:01Z</time>
      </trkpt>
      <trkpt lat="46.01702" lon="5.69305">
        <ele>1038.84</ele>
        <time>2023-05-08T11:18:17Z</time>
      </trkpt>
      <trkpt lat="46.01677" lon="5.69288">
        <ele>1036.92</ele>
        <time>2023-05-08T11:18:33Z</time>
      </trkpt>
      <trkpt lat="46.01656" lon="5.69269">
        <ele>1035</ele>
        <time>2023-05-08T11:18:46Z</time>
      </trkpt>
      <trkpt lat="46.01648" lon="5.69264">
        <ele>1033.55</ele>
        <time>2023-05-08T11:18:52Z</time>
      </trkpt>
      <trkpt lat="46.01646" lon="5.69264">
        <ele>1033.55</ele>
        <time>2023-05-08T11:18:53Z</time>
      </trkpt>
      <trkpt lat="46.01645" lon="5.69264">
        <ele>1033.07</ele>
        <time>2023-05-08T11:18:54Z</time>
      </trkpt>
      <trkpt lat="46.01643" lon="5.69264">
        <ele>1033.55</ele>
        <time>2023-05-08T11:18:55Z</time>
      </trkpt>
      <trkpt lat="46.01641" lon="5.69264">
        <ele>1033.07</ele>
        <time>2023-05-08T11:18:56Z</time>
      </trkpt>
      <trkpt lat="46.01619" lon="5.69269">
        <ele>1034.52</ele>
        <time>2023-05-08T11:19:09Z</time>
      </trkpt>
      <trkpt lat="46.01595" lon="5.6927">
        <ele>1033.55</ele>
        <time>2023-05-08T11:19:24Z</time>
      </trkpt>
      <trkpt lat="46.01572" lon="5.69267">
        <ele>1030.19</ele>
        <time>2023-05-08T11:19:36Z</time>
      </trkpt>
      <trkpt lat="46.01551" lon="5.69265">
        <ele>1028.27</ele>
        <time>2023-05-08T11:19:49Z</time>
      </trkpt>
      <trkpt lat="46.01548" lon="5.69264">
        <ele>1028.75</ele>
        <time>2023-05-08T11:19:51Z</time>
      </trkpt>
      <trkpt lat="46.01527" lon="5.69269">
        <ele>1031.15</ele>
        <time>2023-05-08T11:20:03Z</time>
      </trkpt>
      <trkpt lat="46.01507" lon="5.69276">
        <ele>1032.11</ele>
        <time>2023-05-08T11:20:15Z</time>
      </trkpt>
      <trkpt lat="46.01486" lon="5.6928">
        <ele>1033.07</ele>
        <time>2023-05-08T11:20:29Z</time>
      </trkpt>
      <trkpt lat="46.01462" lon="5.69283">
        <ele>1035.96</ele>
        <time>2023-05-08T11:20:45Z</time>
      </trkpt>
      <trkpt lat="46.01445" lon="5.69283">
        <ele>1033.55</ele>
        <time>2023-05-08T11:20:52Z</time>
      </trkpt>
      <trkpt lat="46.01443" lon="5.69284">
        <ele>1033.55</ele>
        <time>2023-05-08T11:20:53Z</time>
      </trkpt>
      <trkpt lat="46.01424" lon="5.69298">
        <ele>1028.75</ele>
        <time>2023-05-08T11:21:05Z</time>
      </trkpt>
      <trkpt lat="46.01423" lon="5.69301">
        <ele>1027.79</ele>
        <time>2023-05-08T11:21:06Z</time>
      </trkpt>
      <trkpt lat="46.01421" lon="5.69303">
        <ele>1027.31</ele>
        <time>2023-05-08T11:21:07Z</time>
      </trkpt>
      <trkpt lat="46.01407" lon="5.69312">
        <ele>1022.98</ele>
        <time>2023-05-08T11:21:22Z</time>
      </trkpt>
      <trkpt lat="46.01389" lon="5.69323">
        <ele>1020.58</ele>
        <time>2023-05-08T11:21:38Z</time>
      </trkpt>
      <trkpt lat="46.01372" lon="5.69326">
        <ele>1017.69</ele>
        <time>2023-05-08T11:21:53Z</time>
      </trkpt>
      <trkpt lat="46.01333" lon="5.69322">
        <ele>1018.65</ele>
        <time>2023-05-08T11:22:06Z</time>
      </trkpt>
      <trkpt lat="46.01318" lon="5.69319">
        <ele>1021.06</ele>
        <time>2023-05-08T11:22:14Z</time>
      </trkpt>
      <trkpt lat="46.01308" lon="5.69318">
        <ele>1021.54</ele>
        <time>2023-05-08T11:22:17Z</time>
      </trkpt>
      <trkpt lat="46.01306" lon="5.69319">
        <ele>1021.06</ele>
        <time>2023-05-08T11:22:18Z</time>
      </trkpt>
      <trkpt lat="46.01304" lon="5.6932">
        <ele>1020.58</ele>
        <time>2023-05-08T11:22:19Z</time>
      </trkpt>
      <trkpt lat="46.01299" lon="5.69322">
        <ele>1020.1</ele>
        <time>2023-05-08T11:22:22Z</time>
      </trkpt>
      <trkpt lat="46.01297" lon="5.69321">
        <ele>1020.1</ele>
        <time>2023-05-08T11:22:23Z</time>
      </trkpt>
      <trkpt lat="46.01294" lon="5.69322">
        <ele>1019.62</ele>
        <time>2023-05-08T11:22:24Z</time>
      </trkpt>
      <trkpt lat="46.01292" lon="5.69323">
        <ele>1019.62</ele>
        <time>2023-05-08T11:22:25Z</time>
      </trkpt>
      <trkpt lat="46.01266" lon="5.69336">
        <ele>1020.58</ele>
        <time>2023-05-08T11:22:42Z</time>
      </trkpt>
      <trkpt lat="46.01245" lon="5.69357">
        <ele>1019.13</ele>
        <time>2023-05-08T11:22:59Z</time>
      </trkpt>
      <trkpt lat="46.01222" lon="5.69381">
        <ele>1013.85</ele>
        <time>2023-05-08T11:23:15Z</time>
      </trkpt>
      <trkpt lat="46.01195" lon="5.69392">
        <ele>1005.68</ele>
        <time>2023-05-08T11:23:32Z</time>
      </trkpt>
      <trkpt lat="46.01166" lon="5.69383">
        <ele>1000.87</ele>
        <time>2023-05-08T11:23:48Z</time>
      </trkpt>
      <trkpt lat="46.01143" lon="5.69364">
        <ele>998.95</ele>
        <time>2023-05-08T11:24:04Z</time>
      </trkpt>
      <trkpt lat="46.0112" lon="5.69378">
        <ele>993.66</ele>
        <time>2023-05-08T11:24:24Z</time>
      </trkpt>
      <trkpt lat="46.01093" lon="5.69397">
        <ele>986.93</ele>
        <time>2023-05-08T11:24:44Z</time>
      </trkpt>
      <trkpt lat="46.01082" lon="5.69371">
        <ele>983.09</ele>
        <time>2023-05-08T11:25:00Z</time>
      </trkpt>
      <trkpt lat="46.01083" lon="5.69343">
        <ele>983.09</ele>
        <time>2023-05-08T11:25:17Z</time>
      </trkpt>
      <trkpt lat="46.01082" lon="5.69341">
        <ele>983.09</ele>
        <time>2023-05-08T11:25:18Z</time>
      </trkpt>
      <trkpt lat="46.01082" lon="5.69338">
        <ele>983.09</ele>
        <time>2023-05-08T11:25:19Z</time>
      </trkpt>
      <trkpt lat="46.01081" lon="5.69326">
        <ele>982.12</ele>
        <time>2023-05-08T11:25:25Z</time>
      </trkpt>
      <trkpt lat="46.01086" lon="5.69294">
        <ele>977.32</ele>
        <time>2023-05-08T11:25:41Z</time>
      </trkpt>
      <trkpt lat="46.01099" lon="5.69262">
        <ele>972.99</ele>
        <time>2023-05-08T11:25:58Z</time>
      </trkpt>
      <trkpt lat="46.01115" lon="5.69238">
        <ele>971.55</ele>
        <time>2023-05-08T11:26:13Z</time>
      </trkpt>
      <trkpt lat="46.01134" lon="5.69211">
        <ele>967.7</ele>
        <time>2023-05-08T11:26:32Z</time>
      </trkpt>
      <trkpt lat="46.01153" lon="5.69175">
        <ele>961.94</ele>
        <time>2023-05-08T11:26:52Z</time>
      </trkpt>
      <trkpt lat="46.01163" lon="5.69142">
        <ele>958.09</ele>
        <time>2023-05-08T11:27:10Z</time>
      </trkpt>
      <trkpt lat="46.01175" lon="5.69115">
        <ele>957.61</ele>
        <time>2023-05-08T11:27:25Z</time>
      </trkpt>
      <trkpt lat="46.0118" lon="5.69086">
        <ele>954.73</ele>
        <time>2023-05-08T11:27:42Z</time>
      </trkpt>
      <trkpt lat="46.01157" lon="5.69062">
        <ele>950.4</ele>
        <time>2023-05-08T11:28:01Z</time>
      </trkpt>
      <trkpt lat="46.01141" lon="5.69047">
        <ele>948</ele>
        <time>2023-05-08T11:28:19Z</time>
      </trkpt>
      <trkpt lat="46.01123" lon="5.69026">
        <ele>948.96</ele>
        <time>2023-05-08T11:28:36Z</time>
      </trkpt>
      <trkpt lat="46.01111" lon="5.69041">
        <ele>950.4</ele>
        <time>2023-05-08T11:28:55Z</time>
      </trkpt>
      <trkpt lat="46.01104" lon="5.69057">
        <ele>950.4</ele>
        <time>2023-05-08T11:29:04Z</time>
      </trkpt>
      <trkpt lat="46.01073" lon="5.69049">
        <ele>950.4</ele>
        <time>2023-05-08T11:29:23Z</time>
      </trkpt>
      <trkpt lat="46.01048" lon="5.69066">
        <ele>946.07</ele>
        <time>2023-05-08T11:29:43Z</time>
      </trkpt>
      <trkpt lat="46.01022" lon="5.69071">
        <ele>935.02</ele>
        <time>2023-05-08T11:30:01Z</time>
      </trkpt>
      <trkpt lat="46.00993" lon="5.69049">
        <ele>926.85</ele>
        <time>2023-05-08T11:30:21Z</time>
      </trkpt>
      <trkpt lat="46.00973" lon="5.69033">
        <ele>923</ele>
        <time>2023-05-08T11:30:36Z</time>
      </trkpt>
      <trkpt lat="46.0095" lon="5.69025">
        <ele>920.6</ele>
        <time>2023-05-08T11:30:52Z</time>
      </trkpt>
      <trkpt lat="46.00914" lon="5.6903">
        <ele>918.68</ele>
        <time>2023-05-08T11:31:12Z</time>
      </trkpt>
      <trkpt lat="46.00893" lon="5.69041">
        <ele>915.31</ele>
        <time>2023-05-08T11:31:27Z</time>
      </trkpt>
      <trkpt lat="46.00863" lon="5.69052">
        <ele>910.99</ele>
        <time>2023-05-08T11:31:47Z</time>
      </trkpt>
      <trkpt lat="46.0084" lon="5.69066">
        <ele>906.18</ele>
        <time>2023-05-08T11:32:04Z</time>
      </trkpt>
      <trkpt lat="46.0081" lon="5.69075">
        <ele>901.85</ele>
        <time>2023-05-08T11:32:24Z</time>
      </trkpt>
      <trkpt lat="46.0078" lon="5.69074">
        <ele>897.53</ele>
        <time>2023-05-08T11:32:45Z</time>
      </trkpt>
      <trkpt lat="46.00779" lon="5.69071">
        <ele>896.09</ele>
        <time>2023-05-08T11:33:00Z</time>
      </trkpt>
      <trkpt lat="46.00779" lon="5.69073">
        <ele>896.09</ele>
        <time>2023-05-08T11:33:28Z</time>
      </trkpt>
      <trkpt lat="46.00775" lon="5.69073">
        <ele>896.09</ele>
        <time>2023-05-08T11:33:52Z</time>
      </trkpt>
      <trkpt lat="46.00773" lon="5.69071">
        <ele>895.61</ele>
        <time>2023-05-08T11:34:16Z</time>
      </trkpt>
      <trkpt lat="46.00775" lon="5.69071">
        <ele>896.57</ele>
        <time>2023-05-08T11:34:43Z</time>
      </trkpt>
      <trkpt lat="46.00776" lon="5.69064">
        <ele>896.09</ele>
        <time>2023-05-08T11:35:01Z</time>
      </trkpt>
      <trkpt lat="46.00777" lon="5.69063">
        <ele>896.09</ele>
        <time>2023-05-08T11:35:02Z</time>
      </trkpt>
      <trkpt lat="46.0079" lon="5.69037">
        <ele>893.2</ele>
        <time>2023-05-08T11:35:18Z</time>
      </trkpt>
      <trkpt lat="46.0081" lon="5.69003">
        <ele>888.88</ele>
        <time>2023-05-08T11:35:39Z</time>
      </trkpt>
      <trkpt lat="46.00823" lon="5.68987">
        <ele>885.03</ele>
        <time>2023-05-08T11:35:52Z</time>
      </trkpt>
      <trkpt lat="46.0083" lon="5.68979">
        <ele>883.11</ele>
        <time>2023-05-08T11:35:58Z</time>
      </trkpt>
      <trkpt lat="46.00833" lon="5.68976">
        <ele>882.63</ele>
        <time>2023-05-08T11:35:59Z</time>
      </trkpt>
      <trkpt lat="46.00834" lon="5.68974">
        <ele>882.15</ele>
        <time>2023-05-08T11:36:00Z</time>
      </trkpt>
      <trkpt lat="46.00836" lon="5.68973">
        <ele>882.15</ele>
        <time>2023-05-08T11:36:01Z</time>
      </trkpt>
      <trkpt lat="46.00837" lon="5.68971">
        <ele>882.15</ele>
        <time>2023-05-08T11:36:02Z</time>
      </trkpt>
      <trkpt lat="46.00857" lon="5.68947">
        <ele>880.22</ele>
        <time>2023-05-08T11:36:17Z</time>
      </trkpt>
      <trkpt lat="46.00882" lon="5.68919">
        <ele>877.34</ele>
        <time>2023-05-08T11:36:36Z</time>
      </trkpt>
      <trkpt lat="46.00902" lon="5.68895">
        <ele>873.98</ele>
        <time>2023-05-08T11:36:52Z</time>
      </trkpt>
      <trkpt lat="46.0092" lon="5.68876">
        <ele>872.05</ele>
        <time>2023-05-08T11:37:06Z</time>
      </trkpt>
      <trkpt lat="46.00937" lon="5.68854">
        <ele>868.21</ele>
        <time>2023-05-08T11:37:19Z</time>
      </trkpt>
      <trkpt lat="46.00957" lon="5.68825">
        <ele>866.77</ele>
        <time>2023-05-08T11:37:35Z</time>
      </trkpt>
      <trkpt lat="46.00978" lon="5.68809">
        <ele>862.92</ele>
        <time>2023-05-08T11:37:50Z</time>
      </trkpt>
      <trkpt lat="46.00997" lon="5.68786">
        <ele>862.92</ele>
        <time>2023-05-08T11:38:06Z</time>
      </trkpt>
      <trkpt lat="46.01015" lon="5.68756">
        <ele>861.48</ele>
        <time>2023-05-08T11:38:23Z</time>
      </trkpt>
      <trkpt lat="46.01023" lon="5.68739">
        <ele>859.56</ele>
        <time>2023-05-08T11:38:36Z</time>
      </trkpt>
      <trkpt lat="46.0102" lon="5.68736">
        <ele>859.08</ele>
        <time>2023-05-08T11:38:39Z</time>
      </trkpt>
      <trkpt lat="46.01019" lon="5.68736">
        <ele>858.59</ele>
        <time>2023-05-08T11:38:40Z</time>
      </trkpt>
      <trkpt lat="46.01018" lon="5.68736">
        <ele>858.59</ele>
        <time>2023-05-08T11:38:41Z</time>
      </trkpt>
      <trkpt lat="46.01016" lon="5.68736">
        <ele>858.59</ele>
        <time>2023-05-08T11:38:42Z</time>
      </trkpt>
      <trkpt lat="46.01015" lon="5.68736">
        <ele>858.59</ele>
        <time>2023-05-08T11:38:43Z</time>
      </trkpt>
      <trkpt lat="46.00991" lon="5.68744">
        <ele>856.19</ele>
        <time>2023-05-08T11:39:01Z</time>
      </trkpt>
      <trkpt lat="46.0097" lon="5.68762">
        <ele>853.31</ele>
        <time>2023-05-08T11:39:18Z</time>
      </trkpt>
      <trkpt lat="46.0094" lon="5.68778">
        <ele>851.87</ele>
        <time>2023-05-08T11:39:36Z</time>
      </trkpt>
      <trkpt lat="46.00909" lon="5.68798">
        <ele>850.9</ele>
        <time>2023-05-08T11:39:56Z</time>
      </trkpt>
      <trkpt lat="46.00881" lon="5.6881">
        <ele>849.94</ele>
        <time>2023-05-08T11:40:14Z</time>
      </trkpt>
      <trkpt lat="46.00851" lon="5.68831">
        <ele>848.98</ele>
        <time>2023-05-08T11:40:34Z</time>
      </trkpt>
      <trkpt lat="46.00828" lon="5.68854">
        <ele>848.02</ele>
        <time>2023-05-08T11:40:51Z</time>
      </trkpt>
      <trkpt lat="46.00797" lon="5.68878">
        <ele>847.54</ele>
        <time>2023-05-08T11:41:11Z</time>
      </trkpt>
      <trkpt lat="46.00768" lon="5.68902">
        <ele>844.66</ele>
        <time>2023-05-08T11:41:31Z</time>
      </trkpt>
      <trkpt lat="46.00747" lon="5.68918">
        <ele>842.25</ele>
        <time>2023-05-08T11:41:46Z</time>
      </trkpt>
      <trkpt lat="46.00719" lon="5.68944">
        <ele>838.41</ele>
        <time>2023-05-08T11:42:06Z</time>
      </trkpt>
      <trkpt lat="46.00701" lon="5.68954">
        <ele>836.48</ele>
        <time>2023-05-08T11:42:20Z</time>
      </trkpt>
      <trkpt lat="46.007" lon="5.68953">
        <ele>836</ele>
        <time>2023-05-08T11:42:21Z</time>
      </trkpt>
      <trkpt lat="46.007" lon="5.68952">
        <ele>836.48</ele>
        <time>2023-05-08T11:42:22Z</time>
      </trkpt>
      <trkpt lat="46.00699" lon="5.6895">
        <ele>836</ele>
        <time>2023-05-08T11:42:23Z</time>
      </trkpt>
      <trkpt lat="46.00699" lon="5.68949">
        <ele>836</ele>
        <time>2023-05-08T11:42:24Z</time>
      </trkpt>
      <trkpt lat="46.00699" lon="5.68947">
        <ele>836</ele>
        <time>2023-05-08T11:42:25Z</time>
      </trkpt>
      <trkpt lat="46.00699" lon="5.68945">
        <ele>835.52</ele>
        <time>2023-05-08T11:42:26Z</time>
      </trkpt>
      <trkpt lat="46.00699" lon="5.68943">
        <ele>835.52</ele>
        <time>2023-05-08T11:42:27Z</time>
      </trkpt>
      <trkpt lat="46.00699" lon="5.68941">
        <ele>835.04</ele>
        <time>2023-05-08T11:42:28Z</time>
      </trkpt>
      <trkpt lat="46.00699" lon="5.68939">
        <ele>834.56</ele>
        <time>2023-05-08T11:42:29Z</time>
      </trkpt>
      <trkpt lat="46.00701" lon="5.68936">
        <ele>834.08</ele>
        <time>2023-05-08T11:42:31Z</time>
      </trkpt>
      <trkpt lat="46.00705" lon="5.6893">
        <ele>833.12</ele>
        <time>2023-05-08T11:42:35Z</time>
      </trkpt>
      <trkpt lat="46.00706" lon="5.68928">
        <ele>833.12</ele>
        <time>2023-05-08T11:42:36Z</time>
      </trkpt>
      <trkpt lat="46.00707" lon="5.68926">
        <ele>833.12</ele>
        <time>2023-05-08T11:42:37Z</time>
      </trkpt>
      <trkpt lat="46.00708" lon="5.68924">
        <ele>832.64</ele>
        <time>2023-05-08T11:42:38Z</time>
      </trkpt>
      <trkpt lat="46.00709" lon="5.68923">
        <ele>832.64</ele>
        <time>2023-05-08T11:42:39Z</time>
      </trkpt>
      <trkpt lat="46.0071" lon="5.68921">
        <ele>832.64</ele>
        <time>2023-05-08T11:42:40Z</time>
      </trkpt>
      <trkpt lat="46.00712" lon="5.68919">
        <ele>832.64</ele>
        <time>2023-05-08T11:42:41Z</time>
      </trkpt>
      <trkpt lat="46.00732" lon="5.68885">
        <ele>831.2</ele>
        <time>2023-05-08T11:43:00Z</time>
      </trkpt>
      <trkpt lat="46.00755" lon="5.68846">
        <ele>831.2</ele>
        <time>2023-05-08T11:43:22Z</time>
      </trkpt>
      <trkpt lat="46.00775" lon="5.68812">
        <ele>830.72</ele>
        <time>2023-05-08T11:43:42Z</time>
      </trkpt>
      <trkpt lat="46.00765" lon="5.6879">
        <ele>826.39</ele>
        <time>2023-05-08T11:43:57Z</time>
      </trkpt>
      <trkpt lat="46.00744" lon="5.68808">
        <ele>823.51</ele>
        <time>2023-05-08T11:44:13Z</time>
      </trkpt>
      <trkpt lat="46.00719" lon="5.6883">
        <ele>820.62</ele>
        <time>2023-05-08T11:44:31Z</time>
      </trkpt>
      <trkpt lat="46.00697" lon="5.6885">
        <ele>817.74</ele>
        <time>2023-05-08T11:44:47Z</time>
      </trkpt>
      <trkpt lat="46.00681" lon="5.68872">
        <ele>813.89</ele>
        <time>2023-05-08T11:45:02Z</time>
      </trkpt>
      <trkpt lat="46.00656" lon="5.68891">
        <ele>808.13</ele>
        <time>2023-05-08T11:45:19Z</time>
      </trkpt>
      <trkpt lat="46.0065" lon="5.68895">
        <ele>806.68</ele>
        <time>2023-05-08T11:45:23Z</time>
      </trkpt>
      <trkpt lat="46.00649" lon="5.68897">
        <ele>806.2</ele>
        <time>2023-05-08T11:45:24Z</time>
      </trkpt>
      <trkpt lat="46.00618" lon="5.68919">
        <ele>798.99</ele>
        <time>2023-05-08T11:45:45Z</time>
      </trkpt>
      <trkpt lat="46.00592" lon="5.68942">
        <ele>790.34</ele>
        <time>2023-05-08T11:46:05Z</time>
      </trkpt>
      <trkpt lat="46.00568" lon="5.68969">
        <ele>792.74</ele>
        <time>2023-05-08T11:46:23Z</time>
      </trkpt>
      <trkpt lat="46.00542" lon="5.69013">
        <ele>797.55</ele>
        <time>2023-05-08T11:46:46Z</time>
      </trkpt>
      <trkpt lat="46.00515" lon="5.69034">
        <ele>796.59</ele>
        <time>2023-05-08T11:47:04Z</time>
      </trkpt>
      <trkpt lat="46.00481" lon="5.69056">
        <ele>796.11</ele>
        <time>2023-05-08T11:47:25Z</time>
      </trkpt>
      <trkpt lat="46.00444" lon="5.69079">
        <ele>794.67</ele>
        <time>2023-05-08T11:47:47Z</time>
      </trkpt>
      <trkpt lat="46.00412" lon="5.69097">
        <ele>791.78</ele>
        <time>2023-05-08T11:48:06Z</time>
      </trkpt>
      <trkpt lat="46.00379" lon="5.69112">
        <ele>790.82</ele>
        <time>2023-05-08T11:48:27Z</time>
      </trkpt>
      <trkpt lat="46.0035" lon="5.69138">
        <ele>787.94</ele>
        <time>2023-05-08T11:48:46Z</time>
      </trkpt>
      <trkpt lat="46.00324" lon="5.69158">
        <ele>786.5</ele>
        <time>2023-05-08T11:49:03Z</time>
      </trkpt>
      <trkpt lat="46.00296" lon="5.69174">
        <ele>784.09</ele>
        <time>2023-05-08T11:49:21Z</time>
      </trkpt>
      <trkpt lat="46.00269" lon="5.69185">
        <ele>781.69</ele>
        <time>2023-05-08T11:49:38Z</time>
      </trkpt>
      <trkpt lat="46.00246" lon="5.69189">
        <ele>780.25</ele>
        <time>2023-05-08T11:49:52Z</time>
      </trkpt>
      <trkpt lat="46.00222" lon="5.69184">
        <ele>777.36</ele>
        <time>2023-05-08T11:50:08Z</time>
      </trkpt>
      <trkpt lat="46.00196" lon="5.69173">
        <ele>773.52</ele>
        <time>2023-05-08T11:50:25Z</time>
      </trkpt>
      <trkpt lat="46.00161" lon="5.69167">
        <ele>771.6</ele>
        <time>2023-05-08T11:50:45Z</time>
      </trkpt>
      <trkpt lat="46.00128" lon="5.69181">
        <ele>768.71</ele>
        <time>2023-05-08T11:51:06Z</time>
      </trkpt>
      <trkpt lat="46.00098" lon="5.69202">
        <ele>765.83</ele>
        <time>2023-05-08T11:51:26Z</time>
      </trkpt>
      <trkpt lat="46.00076" lon="5.69211">
        <ele>765.35</ele>
        <time>2023-05-08T11:51:41Z</time>
      </trkpt>
      <trkpt lat="46.00074" lon="5.69202">
        <ele>763.42</ele>
        <time>2023-05-08T11:51:55Z</time>
      </trkpt>
      <trkpt lat="46.00068" lon="5.69208">
        <ele>763.9</ele>
        <time>2023-05-08T11:52:01Z</time>
      </trkpt>
      <trkpt lat="46.00048" lon="5.6923">
        <ele>762.94</ele>
        <time>2023-05-08T11:52:18Z</time>
      </trkpt>
      <trkpt lat="46.00021" lon="5.69248">
        <ele>762.94</ele>
        <time>2023-05-08T11:52:36Z</time>
      </trkpt>
      <trkpt lat="45.99991" lon="5.69264">
        <ele>761.98</ele>
        <time>2023-05-08T11:52:54Z</time>
      </trkpt>
      <trkpt lat="45.99959" lon="5.69283">
        <ele>759.1</ele>
        <time>2023-05-08T11:53:15Z</time>
      </trkpt>
      <trkpt lat="45.99926" lon="5.69304">
        <ele>757.18</ele>
        <time>2023-05-08T11:53:35Z</time>
      </trkpt>
      <trkpt lat="45.99895" lon="5.69322">
        <ele>758.14</ele>
        <time>2023-05-08T11:53:54Z</time>
      </trkpt>
      <trkpt lat="45.99876" lon="5.69334">
        <ele>754.77</ele>
        <time>2023-05-08T11:54:11Z</time>
      </trkpt>
      <trkpt lat="45.99876" lon="5.69334">
        <ele>754.29</ele>
        <time>2023-05-08T11:54:12Z</time>
      </trkpt>
      <trkpt lat="45.99876" lon="5.69329">
        <ele>753.81</ele>
        <time>2023-05-08T11:54:25Z</time>
      </trkpt>
      <trkpt lat="45.99875" lon="5.6933">
        <ele>756.21</ele>
        <time>2023-05-08T11:54:53Z</time>
      </trkpt>
      <trkpt lat="45.99877" lon="5.69329">
        <ele>756.21</ele>
        <time>2023-05-08T11:55:14Z</time>
      </trkpt>
      <trkpt lat="45.99877" lon="5.69328">
        <ele>755.25</ele>
        <time>2023-05-08T11:55:38Z</time>
      </trkpt>
      <trkpt lat="45.99878" lon="5.69332">
        <ele>754.77</ele>
        <time>2023-05-08T11:55:41Z</time>
      </trkpt>
      <trkpt lat="45.99861" lon="5.6935">
        <ele>756.69</ele>
        <time>2023-05-08T11:55:53Z</time>
      </trkpt>
      <trkpt lat="45.99859" lon="5.69351">
        <ele>756.69</ele>
        <time>2023-05-08T11:55:54Z</time>
      </trkpt>
      <trkpt lat="45.99857" lon="5.69351">
        <ele>756.69</ele>
        <time>2023-05-08T11:55:55Z</time>
      </trkpt>
      <trkpt lat="45.99833" lon="5.6937">
        <ele>755.73</ele>
        <time>2023-05-08T11:56:10Z</time>
      </trkpt>
      <trkpt lat="45.99812" lon="5.6939">
        <ele>752.85</ele>
        <time>2023-05-08T11:56:29Z</time>
      </trkpt>
      <trkpt lat="45.99785" lon="5.69408">
        <ele>748.04</ele>
        <time>2023-05-08T11:56:49Z</time>
      </trkpt>
      <trkpt lat="45.99784" lon="5.69408">
        <ele>748.04</ele>
        <time>2023-05-08T11:56:50Z</time>
      </trkpt>
      <trkpt lat="45.99783" lon="5.69407">
        <ele>747.56</ele>
        <time>2023-05-08T11:56:51Z</time>
      </trkpt>
      <trkpt lat="45.99781" lon="5.69406">
        <ele>746.6</ele>
        <time>2023-05-08T11:56:52Z</time>
      </trkpt>
      <trkpt lat="45.99781" lon="5.69405">
        <ele>746.12</ele>
        <time>2023-05-08T11:56:53Z</time>
      </trkpt>
      <trkpt lat="45.99772" lon="5.69393">
        <ele>742.28</ele>
        <time>2023-05-08T11:57:00Z</time>
      </trkpt>
      <trkpt lat="45.99771" lon="5.69392">
        <ele>741.79</ele>
        <time>2023-05-08T11:57:01Z</time>
      </trkpt>
      <trkpt lat="45.99769" lon="5.69391">
        <ele>741.31</ele>
        <time>2023-05-08T11:57:02Z</time>
      </trkpt>
      <trkpt lat="45.99768" lon="5.69389">
        <ele>741.31</ele>
        <time>2023-05-08T11:57:03Z</time>
      </trkpt>
      <trkpt lat="45.99767" lon="5.69388">
        <ele>740.83</ele>
        <time>2023-05-08T11:57:04Z</time>
      </trkpt>
      <trkpt lat="45.99766" lon="5.69386">
        <ele>740.83</ele>
        <time>2023-05-08T11:57:05Z</time>
      </trkpt>
      <trkpt lat="45.99765" lon="5.69384">
        <ele>740.83</ele>
        <time>2023-05-08T11:57:06Z</time>
      </trkpt>
      <trkpt lat="45.99764" lon="5.69382">
        <ele>740.83</ele>
        <time>2023-05-08T11:57:07Z</time>
      </trkpt>
      <trkpt lat="45.99763" lon="5.69381">
        <ele>740.83</ele>
        <time>2023-05-08T11:57:08Z</time>
      </trkpt>
      <trkpt lat="45.99761" lon="5.69379">
        <ele>740.83</ele>
        <time>2023-05-08T11:57:09Z</time>
      </trkpt>
      <trkpt lat="45.99749" lon="5.69362">
        <ele>745.16</ele>
        <time>2023-05-08T11:57:22Z</time>
      </trkpt>
      <trkpt lat="45.99737" lon="5.69328">
        <ele>747.08</ele>
        <time>2023-05-08T11:57:37Z</time>
      </trkpt>
      <trkpt lat="45.99725" lon="5.69297">
        <ele>746.6</ele>
        <time>2023-05-08T11:57:52Z</time>
      </trkpt>
      <trkpt lat="45.99725" lon="5.69262">
        <ele>742.28</ele>
        <time>2023-05-08T11:58:05Z</time>
      </trkpt>
      <trkpt lat="45.99728" lon="5.69254">
        <ele>737.95</ele>
        <time>2023-05-08T11:58:17Z</time>
      </trkpt>
      <trkpt lat="45.9973" lon="5.6925">
        <ele>735.55</ele>
        <time>2023-05-08T11:58:44Z</time>
      </trkpt>
      <trkpt lat="45.99731" lon="5.69249">
        <ele>735.55</ele>
        <time>2023-05-08T11:58:45Z</time>
      </trkpt>
      <trkpt lat="45.99732" lon="5.69247">
        <ele>736.51</ele>
        <time>2023-05-08T11:58:47Z</time>
      </trkpt>
      <trkpt lat="45.99743" lon="5.69235">
        <ele>738.91</ele>
        <time>2023-05-08T11:58:59Z</time>
      </trkpt>
      <trkpt lat="45.9975" lon="5.69228">
        <ele>739.87</ele>
        <time>2023-05-08T11:59:11Z</time>
      </trkpt>
      <trkpt lat="45.99749" lon="5.69227">
        <ele>740.83</ele>
        <time>2023-05-08T11:59:30Z</time>
      </trkpt>
      <trkpt lat="45.99749" lon="5.69229">
        <ele>742.28</ele>
        <time>2023-05-08T11:59:50Z</time>
      </trkpt>
      <trkpt lat="45.99747" lon="5.69226">
        <ele>742.76</ele>
        <time>2023-05-08T12:00:14Z</time>
      </trkpt>
      <trkpt lat="45.99747" lon="5.69226">
        <ele>744.68</ele>
        <time>2023-05-08T12:00:30Z</time>
      </trkpt>
      <trkpt lat="45.99748" lon="5.69229">
        <ele>745.16</ele>
        <time>2023-05-08T12:00:43Z</time>
      </trkpt>
      <trkpt lat="45.99754" lon="5.69228">
        <ele>744.68</ele>
        <time>2023-05-08T12:00:59Z</time>
      </trkpt>
      <trkpt lat="45.99761" lon="5.69227">
        <ele>744.68</ele>
        <time>2023-05-08T12:01:11Z</time>
      </trkpt>
      <trkpt lat="45.99771" lon="5.69223">
        <ele>744.2</ele>
        <time>2023-05-08T12:01:19Z</time>
      </trkpt>
      <trkpt lat="45.99772" lon="5.69216">
        <ele>743.72</ele>
        <time>2023-05-08T12:01:24Z</time>
      </trkpt>
      <trkpt lat="45.99762" lon="5.69184">
        <ele>741.79</ele>
        <time>2023-05-08T12:01:42Z</time>
      </trkpt>
      <trkpt lat="45.99763" lon="5.69172">
        <ele>740.83</ele>
        <time>2023-05-08T12:01:48Z</time>
      </trkpt>
      <trkpt lat="45.99758" lon="5.69174">
        <ele>741.79</ele>
        <time>2023-05-08T12:03:39Z</time>
        <extensions>
          <visugpx:TrkExtension xmlns:visugpx="https://www.visugpx.com/editgpx/">
            <visugpx:node>1</visugpx:node>
            </visugpx:TrkExtension>
        </extensions>
      </trkpt>
      <trkpt lat="45.99749" lon="5.69187">
        <ele>740.83</ele>
        <time>2023-05-08T12:03:48Z</time>
      </trkpt>
      <trkpt lat="45.99749" lon="5.69189">
        <ele>740.83</ele>
        <time>2023-05-08T12:03:49Z</time>
      </trkpt>
      <trkpt lat="45.99748" lon="5.69191">
        <ele>740.83</ele>
        <time>2023-05-08T12:03:50Z</time>
      </trkpt>
      <trkpt lat="45.99741" lon="5.69202">
        <ele>740.35</ele>
        <time>2023-05-08T12:03:57Z</time>
      </trkpt>
      <trkpt lat="45.99741" lon="5.69204">
        <ele>740.35</ele>
        <time>2023-05-08T12:03:58Z</time>
      </trkpt>
      <trkpt lat="45.9974" lon="5.69205">
        <ele>740.35</ele>
        <time>2023-05-08T12:03:59Z</time>
      </trkpt>
      <trkpt lat="45.99738" lon="5.69207">
        <ele>740.35</ele>
        <time>2023-05-08T12:04:00Z</time>
      </trkpt>
      <trkpt lat="45.99737" lon="5.69209">
        <ele>740.35</ele>
        <time>2023-05-08T12:04:01Z</time>
      </trkpt>
      <trkpt lat="45.99735" lon="5.6921">
        <ele>740.35</ele>
        <time>2023-05-08T12:04:02Z</time>
      </trkpt>
      <trkpt lat="45.99733" lon="5.69212">
        <ele>740.35</ele>
        <time>2023-05-08T12:04:03Z</time>
      </trkpt>
      <trkpt lat="45.99727" lon="5.69215">
        <ele>740.35</ele>
        <time>2023-05-08T12:04:06Z</time>
      </trkpt>
      <trkpt lat="45.99701" lon="5.69191">
        <ele>748.52</ele>
        <time>2023-05-08T12:04:20Z</time>
      </trkpt>
      <trkpt lat="45.99694" lon="5.69168">
        <ele>753.81</ele>
        <time>2023-05-08T12:04:34Z</time>
      </trkpt>
      <trkpt lat="45.99682" lon="5.69137">
        <ele>759.1</ele>
        <time>2023-05-08T12:04:53Z</time>
      </trkpt>
      <trkpt lat="45.99674" lon="5.69089">
        <ele>749</ele>
        <time>2023-05-08T12:05:11Z</time>
      </trkpt>
      <trkpt lat="45.99658" lon="5.69051">
        <ele>743.72</ele>
        <time>2023-05-08T12:05:29Z</time>
      </trkpt>
      <trkpt lat="45.99643" lon="5.69016">
        <ele>745.16</ele>
        <time>2023-05-08T12:05:48Z</time>
      </trkpt>
      <trkpt lat="45.99632" lon="5.68986">
        <ele>745.64</ele>
        <time>2023-05-08T12:06:03Z</time>
      </trkpt>
      <trkpt lat="45.99628" lon="5.68948">
        <ele>737.95</ele>
        <time>2023-05-08T12:06:17Z</time>
      </trkpt>
      <trkpt lat="45.99624" lon="5.68908">
        <ele>729.3</ele>
        <time>2023-05-08T12:06:34Z</time>
      </trkpt>
      <trkpt lat="45.99621" lon="5.68868">
        <ele>725.93</ele>
        <time>2023-05-08T12:06:50Z</time>
      </trkpt>
      <trkpt lat="45.99623" lon="5.68826">
        <ele>725.45</ele>
        <time>2023-05-08T12:07:06Z</time>
      </trkpt>
      <trkpt lat="45.99618" lon="5.68785">
        <ele>724.01</ele>
        <time>2023-05-08T12:07:22Z</time>
      </trkpt>
      <trkpt lat="45.99616" lon="5.68743">
        <ele>720.16</ele>
        <time>2023-05-08T12:07:38Z</time>
      </trkpt>
      <trkpt lat="45.99606" lon="5.68706">
        <ele>715.84</ele>
        <time>2023-05-08T12:07:53Z</time>
      </trkpt>
      <trkpt lat="45.99593" lon="5.6867">
        <ele>714.4</ele>
        <time>2023-05-08T12:08:08Z</time>
      </trkpt>
      <trkpt lat="45.99581" lon="5.6864">
        <ele>710.07</ele>
        <time>2023-05-08T12:08:25Z</time>
      </trkpt>
      <trkpt lat="45.99584" lon="5.68622">
        <ele>706.23</ele>
        <time>2023-05-08T12:08:41Z</time>
      </trkpt>
      <trkpt lat="45.99586" lon="5.68615">
        <ele>714.4</ele>
        <time>2023-05-08T12:08:58Z</time>
      </trkpt>
      <trkpt lat="45.99585" lon="5.68615">
        <ele>715.84</ele>
        <time>2023-05-08T12:09:19Z</time>
      </trkpt>
      <trkpt lat="45.99585" lon="5.68613">
        <ele>716.8</ele>
        <time>2023-05-08T12:09:39Z</time>
      </trkpt>
      <trkpt lat="45.99584" lon="5.68607">
        <ele>716.8</ele>
        <time>2023-05-08T12:09:57Z</time>
      </trkpt>
      <trkpt lat="45.99586" lon="5.686">
        <ele>717.28</ele>
        <time>2023-05-08T12:10:11Z</time>
      </trkpt>
      <trkpt lat="45.99588" lon="5.68581">
        <ele>716.32</ele>
        <time>2023-05-08T12:10:24Z</time>
      </trkpt>
      <trkpt lat="45.99593" lon="5.68547">
        <ele>716.8</ele>
        <time>2023-05-08T12:10:43Z</time>
      </trkpt>
      <trkpt lat="45.99593" lon="5.68542">
        <ele>716.32</ele>
        <time>2023-05-08T12:10:47Z</time>
      </trkpt>
      <trkpt lat="45.99593" lon="5.6854">
        <ele>716.32</ele>
        <time>2023-05-08T12:10:48Z</time>
      </trkpt>
      <trkpt lat="45.9959" lon="5.68511">
        <ele>715.36</ele>
        <time>2023-05-08T12:11:06Z</time>
      </trkpt>
      <trkpt lat="45.99588" lon="5.68492">
        <ele>715.36</ele>
        <time>2023-05-08T12:11:21Z</time>
      </trkpt>
      <trkpt lat="45.99584" lon="5.68463">
        <ele>714.88</ele>
        <time>2023-05-08T12:11:38Z</time>
      </trkpt>
      <trkpt lat="45.99578" lon="5.68437">
        <ele>715.36</ele>
        <time>2023-05-08T12:11:54Z</time>
      </trkpt>
      <trkpt lat="45.9957" lon="5.68403">
        <ele>713.44</ele>
        <time>2023-05-08T12:12:15Z</time>
      </trkpt>
      <trkpt lat="45.99564" lon="5.68376">
        <ele>710.55</ele>
        <time>2023-05-08T12:12:35Z</time>
      </trkpt>
      <trkpt lat="45.99556" lon="5.68355">
        <ele>710.07</ele>
        <time>2023-05-08T12:12:51Z</time>
      </trkpt>
      <trkpt lat="45.99552" lon="5.68349">
        <ele>710.07</ele>
        <time>2023-05-08T12:12:57Z</time>
      </trkpt>
      <trkpt lat="45.99551" lon="5.68348">
        <ele>709.59</ele>
        <time>2023-05-08T12:12:58Z</time>
      </trkpt>
      <trkpt lat="45.9955" lon="5.68347">
        <ele>709.59</ele>
        <time>2023-05-08T12:12:59Z</time>
      </trkpt>
      <trkpt lat="45.99536" lon="5.68325">
        <ele>708.15</ele>
        <time>2023-05-08T12:13:17Z</time>
      </trkpt>
      <trkpt lat="45.9952" lon="5.68309">
        <ele>703.82</ele>
        <time>2023-05-08T12:13:35Z</time>
      </trkpt>
      <trkpt lat="45.99503" lon="5.68296">
        <ele>699.98</ele>
        <time>2023-05-08T12:13:54Z</time>
      </trkpt>
      <trkpt lat="45.99495" lon="5.68291">
        <ele>699.98</ele>
        <time>2023-05-08T12:14:02Z</time>
      </trkpt>
      <trkpt lat="45.99481" lon="5.6828">
        <ele>699.02</ele>
        <time>2023-05-08T12:14:17Z</time>
      </trkpt>
      <trkpt lat="45.99471" lon="5.6826">
        <ele>699.02</ele>
        <time>2023-05-08T12:14:32Z</time>
      </trkpt>
      <trkpt lat="45.99468" lon="5.68238">
        <ele>698.53</ele>
        <time>2023-05-08T12:14:45Z</time>
      </trkpt>
      <trkpt lat="45.99469" lon="5.68236">
        <ele>698.53</ele>
        <time>2023-05-08T12:14:46Z</time>
      </trkpt>
      <trkpt lat="45.99487" lon="5.68219">
        <ele>697.57</ele>
        <time>2023-05-08T12:15:03Z</time>
      </trkpt>
      <trkpt lat="45.99488" lon="5.68218">
        <ele>697.57</ele>
        <time>2023-05-08T12:15:04Z</time>
      </trkpt>
      <trkpt lat="45.99489" lon="5.68217">
        <ele>697.09</ele>
        <time>2023-05-08T12:15:05Z</time>
      </trkpt>
      <trkpt lat="45.99505" lon="5.68204">
        <ele>694.21</ele>
        <time>2023-05-08T12:15:20Z</time>
      </trkpt>
      <trkpt lat="45.99524" lon="5.68192">
        <ele>692.29</ele>
        <time>2023-05-08T12:15:36Z</time>
      </trkpt>
      <trkpt lat="45.99545" lon="5.68185">
        <ele>690.36</ele>
        <time>2023-05-08T12:15:52Z</time>
      </trkpt>
      <trkpt lat="45.99565" lon="5.68182">
        <ele>689.88</ele>
        <time>2023-05-08T12:16:09Z</time>
      </trkpt>
      <trkpt lat="45.99593" lon="5.6818">
        <ele>687.96</ele>
        <time>2023-05-08T12:16:29Z</time>
      </trkpt>
      <trkpt lat="45.99614" lon="5.68177">
        <ele>687.48</ele>
        <time>2023-05-08T12:16:47Z</time>
      </trkpt>
      <trkpt lat="45.99631" lon="5.6817">
        <ele>685.56</ele>
        <time>2023-05-08T12:17:04Z</time>
      </trkpt>
      <trkpt lat="45.99632" lon="5.68169">
        <ele>685.56</ele>
        <time>2023-05-08T12:17:05Z</time>
      </trkpt>
      <trkpt lat="45.99633" lon="5.68168">
        <ele>685.08</ele>
        <time>2023-05-08T12:17:06Z</time>
      </trkpt>
      <trkpt lat="45.9965" lon="5.68144">
        <ele>684.12</ele>
        <time>2023-05-08T12:17:25Z</time>
      </trkpt>
      <trkpt lat="45.99661" lon="5.68111">
        <ele>683.15</ele>
        <time>2023-05-08T12:17:45Z</time>
      </trkpt>
      <trkpt lat="45.99672" lon="5.68078">
        <ele>683.63</ele>
        <time>2023-05-08T12:18:05Z</time>
      </trkpt>
      <trkpt lat="45.99682" lon="5.68048">
        <ele>685.08</ele>
        <time>2023-05-08T12:18:22Z</time>
      </trkpt>
      <trkpt lat="45.99689" lon="5.68022">
        <ele>679.79</ele>
        <time>2023-05-08T12:18:38Z</time>
      </trkpt>
      <trkpt lat="45.9969" lon="5.68022">
        <ele>679.79</ele>
        <time>2023-05-08T12:18:39Z</time>
      </trkpt>
      <trkpt lat="45.99695" lon="5.68022">
        <ele>679.31</ele>
        <time>2023-05-08T12:18:43Z</time>
      </trkpt>
      <trkpt lat="45.99696" lon="5.68023">
        <ele>678.83</ele>
        <time>2023-05-08T12:18:44Z</time>
      </trkpt>
      <trkpt lat="45.99697" lon="5.68024">
        <ele>678.83</ele>
        <time>2023-05-08T12:18:45Z</time>
      </trkpt>
      <trkpt lat="45.99698" lon="5.68025">
        <ele>678.83</ele>
        <time>2023-05-08T12:18:46Z</time>
      </trkpt>
      <trkpt lat="45.99713" lon="5.68045">
        <ele>677.87</ele>
        <time>2023-05-08T12:19:03Z</time>
      </trkpt>
      <trkpt lat="45.99723" lon="5.68044">
        <ele>678.83</ele>
        <time>2023-05-08T12:19:17Z</time>
      </trkpt>
      <trkpt lat="45.99728" lon="5.68046">
        <ele>677.87</ele>
        <time>2023-05-08T12:19:35Z</time>
      </trkpt>
      <trkpt lat="45.99734" lon="5.68041">
        <ele>675.94</ele>
        <time>2023-05-08T12:19:50Z</time>
      </trkpt>
      <trkpt lat="45.99737" lon="5.68042">
        <ele>677.39</ele>
        <time>2023-05-08T12:20:11Z</time>
      </trkpt>
      <trkpt lat="45.9974" lon="5.68045">
        <ele>677.87</ele>
        <time>2023-05-08T12:20:32Z</time>
      </trkpt>
      <trkpt lat="45.99735" lon="5.68045">
        <ele>677.87</ele>
        <time>2023-05-08T12:20:52Z</time>
      </trkpt>
      <trkpt lat="45.99733" lon="5.68046">
        <ele>680.27</ele>
        <time>2023-05-08T12:21:10Z</time>
      </trkpt>
      <trkpt lat="45.99729" lon="5.68042">
        <ele>685.56</ele>
        <time>2023-05-08T12:21:35Z</time>
      </trkpt>
      <trkpt lat="45.9973" lon="5.68044">
        <ele>686.04</ele>
        <time>2023-05-08T12:22:02Z</time>
      </trkpt>
      <trkpt lat="45.99736" lon="5.68043">
        <ele>682.19</ele>
        <time>2023-05-08T12:22:24Z</time>
      </trkpt>
      <trkpt lat="45.99734" lon="5.68043">
        <ele>681.23</ele>
        <time>2023-05-08T12:22:40Z</time>
      </trkpt>
      <trkpt lat="45.99738" lon="5.68042">
        <ele>679.79</ele>
        <time>2023-05-08T12:22:56Z</time>
      </trkpt>
      <trkpt lat="45.99736" lon="5.68044">
        <ele>677.87</ele>
        <time>2023-05-08T12:23:12Z</time>
      </trkpt>
      <trkpt lat="45.99737" lon="5.68043">
        <ele>676.42</ele>
        <time>2023-05-08T12:23:29Z</time>
      </trkpt>
      <trkpt lat="45.99738" lon="5.68046">
        <ele>677.87</ele>
        <time>2023-05-08T12:23:44Z</time>
      </trkpt>
      <trkpt lat="45.99736" lon="5.68049">
        <ele>677.87</ele>
        <time>2023-05-08T12:24:02Z</time>
      </trkpt>
      <trkpt lat="45.99734" lon="5.68051">
        <ele>679.79</ele>
        <time>2023-05-08T12:24:26Z</time>
      </trkpt>
      <trkpt lat="45.99732" lon="5.68044">
        <ele>686.52</ele>
        <time>2023-05-08T12:24:50Z</time>
      </trkpt>
      <trkpt lat="45.99733" lon="5.68043">
        <ele>690.36</ele>
        <time>2023-05-08T12:25:23Z</time>
      </trkpt>
      <trkpt lat="45.99735" lon="5.68045">
        <ele>684.6</ele>
        <time>2023-05-08T12:25:49Z</time>
      </trkpt>
      <trkpt lat="45.99737" lon="5.68042">
        <ele>681.23</ele>
        <time>2023-05-08T12:26:03Z</time>
      </trkpt>
      <trkpt lat="45.99739" lon="5.68044">
        <ele>682.19</ele>
        <time>2023-05-08T12:26:17Z</time>
      </trkpt>
      <trkpt lat="45.99738" lon="5.68045">
        <ele>681.71</ele>
        <time>2023-05-08T12:26:34Z</time>
      </trkpt>
      <trkpt lat="45.99734" lon="5.68046">
        <ele>684.12</ele>
        <time>2023-05-08T12:26:51Z</time>
      </trkpt>
      <trkpt lat="45.99735" lon="5.68047">
        <ele>684.12</ele>
        <time>2023-05-08T12:27:14Z</time>
      </trkpt>
      <trkpt lat="45.99738" lon="5.68037">
        <ele>679.31</ele>
        <time>2023-05-08T12:27:32Z</time>
      </trkpt>
      <trkpt lat="45.99738" lon="5.68037">
        <ele>677.39</ele>
        <time>2023-05-08T12:27:50Z</time>
      </trkpt>
      <trkpt lat="45.99738" lon="5.68034">
        <ele>677.87</ele>
        <time>2023-05-08T12:28:01Z</time>
      </trkpt>
      <trkpt lat="45.99737" lon="5.68043">
        <ele>678.83</ele>
        <time>2023-05-08T12:28:20Z</time>
      </trkpt>
      <trkpt lat="45.99736" lon="5.68043">
        <ele>681.23</ele>
        <time>2023-05-08T12:28:37Z</time>
      </trkpt>
      <trkpt lat="45.99737" lon="5.68039">
        <ele>679.79</ele>
        <time>2023-05-08T12:28:51Z</time>
      </trkpt>
      <trkpt lat="45.99737" lon="5.68038">
        <ele>677.87</ele>
        <time>2023-05-08T12:29:07Z</time>
      </trkpt>
      <trkpt lat="45.99739" lon="5.68039">
        <ele>674.5</ele>
        <time>2023-05-08T12:29:28Z</time>
      </trkpt>
      <trkpt lat="45.99736" lon="5.68036">
        <ele>674.98</ele>
        <time>2023-05-08T12:29:43Z</time>
      </trkpt>
      <trkpt lat="45.99736" lon="5.68041">
        <ele>676.42</ele>
        <time>2023-05-08T12:30:01Z</time>
      </trkpt>
      <trkpt lat="45.99734" lon="5.68044">
        <ele>674.98</ele>
        <time>2023-05-08T12:30:20Z</time>
      </trkpt>
      <trkpt lat="45.99732" lon="5.68035">
        <ele>668.73</ele>
        <time>2023-05-08T12:30:37Z</time>
      </trkpt>
      <trkpt lat="45.99731" lon="5.68031">
        <ele>668.25</ele>
        <time>2023-05-08T12:30:56Z</time>
      </trkpt>
      <trkpt lat="45.99733" lon="5.68046">
        <ele>673.06</ele>
        <time>2023-05-08T12:31:11Z</time>
      </trkpt>
      <trkpt lat="45.99731" lon="5.68046">
        <ele>681.71</ele>
        <time>2023-05-08T12:31:33Z</time>
      </trkpt>
      <trkpt lat="45.99732" lon="5.68044">
        <ele>687.96</ele>
        <time>2023-05-08T12:31:56Z</time>
      </trkpt>
      <trkpt lat="45.9973" lon="5.68042">
        <ele>686.52</ele>
        <time>2023-05-08T12:32:22Z</time>
      </trkpt>
      <trkpt lat="45.99732" lon="5.68036">
        <ele>679.31</ele>
        <time>2023-05-08T12:32:39Z</time>
      </trkpt>
      <trkpt lat="45.99734" lon="5.68043">
        <ele>676.91</ele>
        <time>2023-05-08T12:33:04Z</time>
      </trkpt>
      <trkpt lat="45.99731" lon="5.68042">
        <ele>678.35</ele>
        <time>2023-05-08T12:33:24Z</time>
      </trkpt>
      <trkpt lat="45.99729" lon="5.68049">
        <ele>677.39</ele>
        <time>2023-05-08T12:33:41Z</time>
      </trkpt>
      <trkpt lat="45.99726" lon="5.68054">
        <ele>677.39</ele>
        <time>2023-05-08T12:33:56Z</time>
      </trkpt>
      <trkpt lat="45.99729" lon="5.6805">
        <ele>673.06</ele>
        <time>2023-05-08T12:34:15Z</time>
      </trkpt>
      <trkpt lat="45.99732" lon="5.68045">
        <ele>677.39</ele>
        <time>2023-05-08T12:34:34Z</time>
      </trkpt>
      <trkpt lat="45.99733" lon="5.68046">
        <ele>679.79</ele>
        <time>2023-05-08T12:35:02Z</time>
      </trkpt>
      <trkpt lat="45.99731" lon="5.68048">
        <ele>679.31</ele>
        <time>2023-05-08T12:35:18Z</time>
      </trkpt>
      <trkpt lat="45.99733" lon="5.68044">
        <ele>676.42</ele>
        <time>2023-05-08T12:35:52Z</time>
      </trkpt>
      <trkpt lat="45.99732" lon="5.68046">
        <ele>678.83</ele>
        <time>2023-05-08T12:36:12Z</time>
      </trkpt>
      <trkpt lat="45.99731" lon="5.68047">
        <ele>678.35</ele>
        <time>2023-05-08T12:36:34Z</time>
      </trkpt>
      <trkpt lat="45.99731" lon="5.68046">
        <ele>679.79</ele>
        <time>2023-05-08T12:36:52Z</time>
      </trkpt>
      <trkpt lat="45.99731" lon="5.68046">
        <ele>683.15</ele>
        <time>2023-05-08T12:37:14Z</time>
      </trkpt>
    </trkseg>
  </trk>
</gpx>